<?xml version="1.0" encoding="UTF-8" standalone="no" ?>
<gpx xmlns="http://www.topografix.com/GPX/1/1" xmlns:xsi="http://www.w3.org/2001/XMLSchema-instance" xsi:schemaLocation="http://www.topografix.com/GPX/1/1 http://www.topografix.com/GPX/1/1/gpx.xsd" version="1.1" creator="VisuGPX - https://www.visugpx.com">
  <metadata>
    <name>Petit circuit autour de La Cadière d'Azur</name>
    <desc><![CDATA[Ce petit circuit autour de la Cadière permet, tout en circulant sur des petites routes tranquilles, de passer devant de nombreux domaines viticoles (AOC Bandol) ainsi qu'une miellerie. Réalisé en vélo électrique]]></desc>
  </metadata>
  <trk>
    <name><![CDATA[3 filles - Miellerie]]></name>
    <trkseg>
      <trkpt lat="43.19564" lon="5.75737">
        <ele>133.60000610352</ele>
        <time>2016-04-18T13:50:35.000Z</time>
      </trkpt>
      <trkpt lat="43.19568" lon="5.7574">
        <ele>134</ele>
        <time>2016-04-18T13:52:55.000Z</time>
      </trkpt>
      <trkpt lat="43.19566" lon="5.75746">
        <ele>133</ele>
        <time>2016-04-18T13:52:57.000Z</time>
      </trkpt>
      <trkpt lat="43.19558" lon="5.75753">
        <ele>130.80000305176</ele>
        <time>2016-04-18T13:53:00.000Z</time>
      </trkpt>
      <trkpt lat="43.19551" lon="5.75758">
        <ele>129</ele>
        <time>2016-04-18T13:53:02.000Z</time>
      </trkpt>
      <trkpt lat="43.19546" lon="5.7576">
        <ele>128.19999694824</ele>
        <time>2016-04-18T13:53:03.000Z</time>
      </trkpt>
      <trkpt lat="43.19535" lon="5.75768">
        <ele>127</ele>
        <time>2016-04-18T13:53:06.000Z</time>
      </trkpt>
      <trkpt lat="43.19532" lon="5.75772">
        <ele>126.59999847412</ele>
        <time>2016-04-18T13:53:08.000Z</time>
      </trkpt>
      <trkpt lat="43.19531" lon="5.75774">
        <ele>126.59999847412</ele>
        <time>2016-04-18T13:53:09.000Z</time>
      </trkpt>
      <trkpt lat="43.19532" lon="5.75782">
        <ele>126.40000152588</ele>
        <time>2016-04-18T13:53:11.000Z</time>
      </trkpt>
      <trkpt lat="43.19534" lon="5.75791">
        <ele>126.59999847412</ele>
        <time>2016-04-18T13:53:13.000Z</time>
      </trkpt>
      <trkpt lat="43.19536" lon="5.75801">
        <ele>126.59999847412</ele>
        <time>2016-04-18T13:53:15.000Z</time>
      </trkpt>
      <trkpt lat="43.19537" lon="5.75814">
        <ele>126.19999694824</ele>
        <time>2016-04-18T13:53:18.000Z</time>
      </trkpt>
      <trkpt lat="43.19537" lon="5.75816">
        <ele>126</ele>
        <time>2016-04-18T13:53:46.000Z</time>
      </trkpt>
      <trkpt lat="43.19536" lon="5.75818">
        <ele>125.80000305176</ele>
        <time>2016-04-18T13:53:47.000Z</time>
      </trkpt>
      <trkpt lat="43.19525" lon="5.75834">
        <ele>123.59999847412</ele>
        <time>2016-04-18T13:53:52.000Z</time>
      </trkpt>
      <trkpt lat="43.19511" lon="5.75852">
        <ele>121</ele>
        <time>2016-04-18T13:53:55.000Z</time>
      </trkpt>
      <trkpt lat="43.19507" lon="5.75859">
        <ele>120</ele>
        <time>2016-04-18T13:53:56.000Z</time>
      </trkpt>
      <trkpt lat="43.19499" lon="5.75874">
        <ele>117.80000305176</ele>
        <time>2016-04-18T13:53:58.000Z</time>
      </trkpt>
      <trkpt lat="43.19491" lon="5.75888">
        <ele>115.40000152588</ele>
        <time>2016-04-18T13:54:00.000Z</time>
      </trkpt>
      <trkpt lat="43.19487" lon="5.75894">
        <ele>114.40000152588</ele>
        <time>2016-04-18T13:54:01.000Z</time>
      </trkpt>
      <trkpt lat="43.19482" lon="5.75898">
        <ele>113.59999847412</ele>
        <time>2016-04-18T13:54:02.000Z</time>
      </trkpt>
      <trkpt lat="43.1947" lon="5.75897">
        <ele>111.40000152588</ele>
        <time>2016-04-18T13:54:04.000Z</time>
      </trkpt>
      <trkpt lat="43.19465" lon="5.75894">
        <ele>110.59999847412</ele>
        <time>2016-04-18T13:54:05.000Z</time>
      </trkpt>
      <trkpt lat="43.19458" lon="5.75886">
        <ele>109.59999847412</ele>
        <time>2016-04-18T13:54:07.000Z</time>
      </trkpt>
      <trkpt lat="43.19453" lon="5.75879">
        <ele>109.19999694824</ele>
        <time>2016-04-18T13:54:09.000Z</time>
      </trkpt>
      <trkpt lat="43.19452" lon="5.75873">
        <ele>109.59999847412</ele>
        <time>2016-04-18T13:54:11.000Z</time>
      </trkpt>
      <trkpt lat="43.19453" lon="5.7587">
        <ele>110</ele>
        <time>2016-04-18T13:54:12.000Z</time>
      </trkpt>
      <trkpt lat="43.19455" lon="5.75859">
        <ele>111.19999694824</ele>
        <time>2016-04-18T13:54:15.000Z</time>
      </trkpt>
      <trkpt lat="43.19455" lon="5.75855">
        <ele>111.59999847412</ele>
        <time>2016-04-18T13:54:16.000Z</time>
      </trkpt>
      <trkpt lat="43.19458" lon="5.75821">
        <ele>114.59999847412</ele>
        <time>2016-04-18T13:54:24.000Z</time>
      </trkpt>
      <trkpt lat="43.19458" lon="5.75816">
        <ele>114.80000305176</ele>
        <time>2016-04-18T13:54:25.000Z</time>
      </trkpt>
      <trkpt lat="43.19458" lon="5.75812">
        <ele>115.19999694824</ele>
        <time>2016-04-18T13:54:26.000Z</time>
      </trkpt>
      <trkpt lat="43.19462" lon="5.75787">
        <ele>116.40000152588</ele>
        <time>2016-04-18T13:54:32.000Z</time>
      </trkpt>
      <trkpt lat="43.19472" lon="5.75757">
        <ele>118.40000152588</ele>
        <time>2016-04-18T13:54:39.000Z</time>
      </trkpt>
      <trkpt lat="43.19473" lon="5.75752">
        <ele>118.59999847412</ele>
        <time>2016-04-18T13:54:40.000Z</time>
      </trkpt>
      <trkpt lat="43.19481" lon="5.75724">
        <ele>120.19999694824</ele>
        <time>2016-04-18T13:54:46.000Z</time>
      </trkpt>
      <trkpt lat="43.19481" lon="5.75719">
        <ele>120.40000152588</ele>
        <time>2016-04-18T13:54:47.000Z</time>
      </trkpt>
      <trkpt lat="43.19481" lon="5.75698">
        <ele>121</ele>
        <time>2016-04-18T13:54:52.000Z</time>
      </trkpt>
      <trkpt lat="43.19479" lon="5.7569">
        <ele>121.19999694824</ele>
        <time>2016-04-18T13:54:54.000Z</time>
      </trkpt>
      <trkpt lat="43.19478" lon="5.75682">
        <ele>121</ele>
        <time>2016-04-18T13:54:56.000Z</time>
      </trkpt>
      <trkpt lat="43.19475" lon="5.7567">
        <ele>121</ele>
        <time>2016-04-18T13:54:59.000Z</time>
      </trkpt>
      <trkpt lat="43.19475" lon="5.75666">
        <ele>121</ele>
        <time>2016-04-18T13:55:00.000Z</time>
      </trkpt>
      <trkpt lat="43.19474" lon="5.75662">
        <ele>121</ele>
        <time>2016-04-18T13:55:01.000Z</time>
      </trkpt>
      <trkpt lat="43.19473" lon="5.75647">
        <ele>121.19999694824</ele>
        <time>2016-04-18T13:55:04.000Z</time>
      </trkpt>
      <trkpt lat="43.19473" lon="5.75638">
        <ele>121.40000152588</ele>
        <time>2016-04-18T13:55:06.000Z</time>
      </trkpt>
      <trkpt lat="43.19477" lon="5.75616">
        <ele>122.59999847412</ele>
        <time>2016-04-18T13:55:11.000Z</time>
      </trkpt>
      <trkpt lat="43.19481" lon="5.75608">
        <ele>123.19999694824</ele>
        <time>2016-04-18T13:55:13.000Z</time>
      </trkpt>
      <trkpt lat="43.19492" lon="5.75583">
        <ele>125.40000152588</ele>
        <time>2016-04-18T13:55:19.000Z</time>
      </trkpt>
      <trkpt lat="43.19495" lon="5.75575">
        <ele>126.19999694824</ele>
        <time>2016-04-18T13:55:21.000Z</time>
      </trkpt>
      <trkpt lat="43.19498" lon="5.75567">
        <ele>126.59999847412</ele>
        <time>2016-04-18T13:55:23.000Z</time>
      </trkpt>
      <trkpt lat="43.19501" lon="5.7555">
        <ele>127.59999847412</ele>
        <time>2016-04-18T13:55:27.000Z</time>
      </trkpt>
      <trkpt lat="43.19503" lon="5.75541">
        <ele>128</ele>
        <time>2016-04-18T13:55:29.000Z</time>
      </trkpt>
      <trkpt lat="43.19506" lon="5.75514">
        <ele>128.80000305176</ele>
        <time>2016-04-18T13:55:35.000Z</time>
      </trkpt>
      <trkpt lat="43.19506" lon="5.75509">
        <ele>129</ele>
        <time>2016-04-18T13:55:36.000Z</time>
      </trkpt>
      <trkpt lat="43.19512" lon="5.75476">
        <ele>130</ele>
        <time>2016-04-18T13:55:43.000Z</time>
      </trkpt>
      <trkpt lat="43.19513" lon="5.75472">
        <ele>130.19999694824</ele>
        <time>2016-04-18T13:55:44.000Z</time>
      </trkpt>
      <trkpt lat="43.19517" lon="5.75446">
        <ele>132.39999389648</ele>
        <time>2016-04-18T13:55:50.000Z</time>
      </trkpt>
      <trkpt lat="43.19519" lon="5.75436">
        <ele>133</ele>
        <time>2016-04-18T13:55:52.000Z</time>
      </trkpt>
      <trkpt lat="43.19523" lon="5.75403">
        <ele>135.39999389648</ele>
        <time>2016-04-18T13:55:59.000Z</time>
      </trkpt>
      <trkpt lat="43.19524" lon="5.75389">
        <ele>136.39999389648</ele>
        <time>2016-04-18T13:56:02.000Z</time>
      </trkpt>
      <trkpt lat="43.19526" lon="5.7537">
        <ele>136.60000610352</ele>
        <time>2016-04-18T13:56:06.000Z</time>
      </trkpt>
      <trkpt lat="43.19527" lon="5.75358">
        <ele>136.60000610352</ele>
        <time>2016-04-18T13:56:09.000Z</time>
      </trkpt>
      <trkpt lat="43.19529" lon="5.7533">
        <ele>136.60000610352</ele>
        <time>2016-04-18T13:56:16.000Z</time>
      </trkpt>
      <trkpt lat="43.19532" lon="5.75306">
        <ele>137.60000610352</ele>
        <time>2016-04-18T13:56:22.000Z</time>
      </trkpt>
      <trkpt lat="43.19532" lon="5.75303">
        <ele>137.60000610352</ele>
        <time>2016-04-18T13:56:23.000Z</time>
      </trkpt>
      <trkpt lat="43.19533" lon="5.75292">
        <ele>137.60000610352</ele>
        <time>2016-04-18T13:56:26.000Z</time>
      </trkpt>
      <trkpt lat="43.19537" lon="5.75277">
        <ele>138</ele>
        <time>2016-04-18T13:56:30.000Z</time>
      </trkpt>
      <trkpt lat="43.19542" lon="5.75248">
        <ele>138.80000305176</ele>
        <time>2016-04-18T13:56:37.000Z</time>
      </trkpt>
      <trkpt lat="43.19543" lon="5.75239">
        <ele>139.19999694824</ele>
        <time>2016-04-18T13:56:39.000Z</time>
      </trkpt>
      <trkpt lat="43.19546" lon="5.75215">
        <ele>140.19999694824</ele>
        <time>2016-04-18T13:56:44.000Z</time>
      </trkpt>
      <trkpt lat="43.19547" lon="5.75201">
        <ele>140.60000610352</ele>
        <time>2016-04-18T13:56:47.000Z</time>
      </trkpt>
      <trkpt lat="43.19554" lon="5.75195">
        <ele>142.60000610352</ele>
        <time>2016-04-18T13:56:50.000Z</time>
      </trkpt>
      <trkpt lat="43.19562" lon="5.75202">
        <ele>144.60000610352</ele>
        <time>2016-04-18T13:56:53.000Z</time>
      </trkpt>
      <trkpt lat="43.19563" lon="5.75207">
        <ele>144.80000305176</ele>
        <time>2016-04-18T13:56:54.000Z</time>
      </trkpt>
      <trkpt lat="43.19565" lon="5.75221">
        <ele>145</ele>
        <time>2016-04-18T13:56:57.000Z</time>
      </trkpt>
      <trkpt lat="43.19565" lon="5.75226">
        <ele>145</ele>
        <time>2016-04-18T13:56:58.000Z</time>
      </trkpt>
      <trkpt lat="43.19565" lon="5.75231">
        <ele>145</ele>
        <time>2016-04-18T13:56:59.000Z</time>
      </trkpt>
      <trkpt lat="43.19566" lon="5.75251">
        <ele>144.80000305176</ele>
        <time>2016-04-18T13:57:03.000Z</time>
      </trkpt>
      <trkpt lat="43.19567" lon="5.75266">
        <ele>145</ele>
        <time>2016-04-18T13:57:06.000Z</time>
      </trkpt>
      <trkpt lat="43.19567" lon="5.75272">
        <ele>145.19999694824</ele>
        <time>2016-04-18T13:57:07.000Z</time>
      </trkpt>
      <trkpt lat="43.19571" lon="5.75296">
        <ele>146.39999389648</ele>
        <time>2016-04-18T13:57:12.000Z</time>
      </trkpt>
      <trkpt lat="43.19572" lon="5.75306">
        <ele>146.80000305176</ele>
        <time>2016-04-18T13:57:14.000Z</time>
      </trkpt>
      <trkpt lat="43.19574" lon="5.75327">
        <ele>146.60000610352</ele>
        <time>2016-04-18T13:57:18.000Z</time>
      </trkpt>
      <trkpt lat="43.19577" lon="5.75347">
        <ele>147</ele>
        <time>2016-04-18T13:57:22.000Z</time>
      </trkpt>
      <trkpt lat="43.19581" lon="5.75356">
        <ele>147.60000610352</ele>
        <time>2016-04-18T13:57:24.000Z</time>
      </trkpt>
      <trkpt lat="43.19593" lon="5.75374">
        <ele>149.80000305176</ele>
        <time>2016-04-18T13:57:29.000Z</time>
      </trkpt>
      <trkpt lat="43.19608" lon="5.75396">
        <ele>153</ele>
        <time>2016-04-18T13:57:36.000Z</time>
      </trkpt>
      <trkpt lat="43.19618" lon="5.75413">
        <ele>155.19999694824</ele>
        <time>2016-04-18T13:57:41.000Z</time>
      </trkpt>
      <trkpt lat="43.19622" lon="5.75423">
        <ele>155.80000305176</ele>
        <time>2016-04-18T13:57:44.000Z</time>
      </trkpt>
      <trkpt lat="43.19624" lon="5.75432">
        <ele>155.80000305176</ele>
        <time>2016-04-18T13:57:46.000Z</time>
      </trkpt>
      <trkpt lat="43.19621" lon="5.75446">
        <ele>154.60000610352</ele>
        <time>2016-04-18T13:57:49.000Z</time>
      </trkpt>
      <trkpt lat="43.19619" lon="5.75451">
        <ele>153.80000305176</ele>
        <time>2016-04-18T13:57:50.000Z</time>
      </trkpt>
      <trkpt lat="43.19613" lon="5.75471">
        <ele>151</ele>
        <time>2016-04-18T13:57:54.000Z</time>
      </trkpt>
      <trkpt lat="43.19608" lon="5.75493">
        <ele>149.39999389648</ele>
        <time>2016-04-18T13:58:00.000Z</time>
      </trkpt>
      <trkpt lat="43.19604" lon="5.7551">
        <ele>148.39999389648</ele>
        <time>2016-04-18T13:58:03.000Z</time>
      </trkpt>
      <trkpt lat="43.19602" lon="5.75531">
        <ele>148.19999694824</ele>
        <time>2016-04-18T13:58:06.000Z</time>
      </trkpt>
      <trkpt lat="43.19603" lon="5.75539">
        <ele>148.80000305176</ele>
        <time>2016-04-18T13:58:07.000Z</time>
      </trkpt>
      <trkpt lat="43.1961" lon="5.75563">
        <ele>149.60000610352</ele>
        <time>2016-04-18T13:58:10.000Z</time>
      </trkpt>
      <trkpt lat="43.19612" lon="5.75571">
        <ele>149.39999389648</ele>
        <time>2016-04-18T13:58:11.000Z</time>
      </trkpt>
      <trkpt lat="43.19614" lon="5.75577">
        <ele>149.60000610352</ele>
        <time>2016-04-18T13:58:12.000Z</time>
      </trkpt>
      <trkpt lat="43.19621" lon="5.75596">
        <ele>150.60000610352</ele>
        <time>2016-04-18T13:58:16.000Z</time>
      </trkpt>
      <trkpt lat="43.19631" lon="5.75622">
        <ele>151.80000305176</ele>
        <time>2016-04-18T13:58:23.000Z</time>
      </trkpt>
      <trkpt lat="43.19638" lon="5.75652">
        <ele>151.19999694824</ele>
        <time>2016-04-18T13:58:30.000Z</time>
      </trkpt>
      <trkpt lat="43.19645" lon="5.75681">
        <ele>149.19999694824</ele>
        <time>2016-04-18T13:58:37.000Z</time>
      </trkpt>
      <trkpt lat="43.1965" lon="5.75696">
        <ele>148.39999389648</ele>
        <time>2016-04-18T13:58:41.000Z</time>
      </trkpt>
      <trkpt lat="43.19657" lon="5.75716">
        <ele>148</ele>
        <time>2016-04-18T13:58:46.000Z</time>
      </trkpt>
      <trkpt lat="43.1966" lon="5.75718">
        <ele>148.19999694824</ele>
        <time>2016-04-18T13:58:47.000Z</time>
      </trkpt>
      <trkpt lat="43.19665" lon="5.75719">
        <ele>148.60000610352</ele>
        <time>2016-04-18T13:58:49.000Z</time>
      </trkpt>
      <trkpt lat="43.19681" lon="5.7572">
        <ele>149.39999389648</ele>
        <time>2016-04-18T13:58:54.000Z</time>
      </trkpt>
      <trkpt lat="43.19694" lon="5.7572">
        <ele>145.80000305176</ele>
        <time>2016-04-18T13:58:58.000Z</time>
      </trkpt>
      <trkpt lat="43.19705" lon="5.75706">
        <ele>144.19999694824</ele>
        <time>2016-04-18T13:59:02.000Z</time>
      </trkpt>
      <trkpt lat="43.19707" lon="5.75703">
        <ele>144</ele>
        <time>2016-04-18T13:59:03.000Z</time>
      </trkpt>
      <trkpt lat="43.19715" lon="5.75687">
        <ele>143.39999389648</ele>
        <time>2016-04-18T13:59:07.000Z</time>
      </trkpt>
      <trkpt lat="43.19719" lon="5.75678">
        <ele>143.39999389648</ele>
        <time>2016-04-18T13:59:09.000Z</time>
      </trkpt>
      <trkpt lat="43.19721" lon="5.75673">
        <ele>143</ele>
        <time>2016-04-18T13:59:10.000Z</time>
      </trkpt>
      <trkpt lat="43.19725" lon="5.75662">
        <ele>142.39999389648</ele>
        <time>2016-04-18T13:59:12.000Z</time>
      </trkpt>
      <trkpt lat="43.1973" lon="5.75649">
        <ele>141.80000305176</ele>
        <time>2016-04-18T13:59:14.000Z</time>
      </trkpt>
      <trkpt lat="43.19732" lon="5.75641">
        <ele>141.39999389648</ele>
        <time>2016-04-18T13:59:15.000Z</time>
      </trkpt>
      <trkpt lat="43.19734" lon="5.75634">
        <ele>141.19999694824</ele>
        <time>2016-04-18T13:59:16.000Z</time>
      </trkpt>
      <trkpt lat="43.19739" lon="5.75619">
        <ele>141</ele>
        <time>2016-04-18T13:59:18.000Z</time>
      </trkpt>
      <trkpt lat="43.1975" lon="5.75586">
        <ele>141.60000610352</ele>
        <time>2016-04-18T13:59:23.000Z</time>
      </trkpt>
      <trkpt lat="43.19762" lon="5.75551">
        <ele>142.39999389648</ele>
        <time>2016-04-18T13:59:29.000Z</time>
      </trkpt>
      <trkpt lat="43.19765" lon="5.7554">
        <ele>142.60000610352</ele>
        <time>2016-04-18T13:59:31.000Z</time>
      </trkpt>
      <trkpt lat="43.19767" lon="5.75534">
        <ele>142.60000610352</ele>
        <time>2016-04-18T13:59:32.000Z</time>
      </trkpt>
      <trkpt lat="43.19774" lon="5.75517">
        <ele>142.19999694824</ele>
        <time>2016-04-18T13:59:35.000Z</time>
      </trkpt>
      <trkpt lat="43.19784" lon="5.75495">
        <ele>141.80000305176</ele>
        <time>2016-04-18T13:59:39.000Z</time>
      </trkpt>
      <trkpt lat="43.19801" lon="5.75452">
        <ele>138.39999389648</ele>
        <time>2016-04-18T13:59:47.000Z</time>
      </trkpt>
      <trkpt lat="43.19803" lon="5.75446">
        <ele>138.39999389648</ele>
        <time>2016-04-18T13:59:48.000Z</time>
      </trkpt>
      <trkpt lat="43.19807" lon="5.75417">
        <ele>140.60000610352</ele>
        <time>2016-04-18T13:59:54.000Z</time>
      </trkpt>
      <trkpt lat="43.19806" lon="5.75404">
        <ele>142.39999389648</ele>
        <time>2016-04-18T14:01:24.000Z</time>
      </trkpt>
      <trkpt lat="43.19809" lon="5.75393">
        <ele>142.80000305176</ele>
        <time>2016-04-18T14:01:28.000Z</time>
      </trkpt>
      <trkpt lat="43.19812" lon="5.75384">
        <ele>142.39999389648</ele>
        <time>2016-04-18T14:01:31.000Z</time>
      </trkpt>
      <trkpt lat="43.19816" lon="5.75374">
        <ele>141.60000610352</ele>
        <time>2016-04-18T14:01:34.000Z</time>
      </trkpt>
      <trkpt lat="43.1982" lon="5.75367">
        <ele>140.80000305176</ele>
        <time>2016-04-18T14:01:37.000Z</time>
      </trkpt>
      <trkpt lat="43.19822" lon="5.75363">
        <ele>140.39999389648</ele>
        <time>2016-04-18T14:01:39.000Z</time>
      </trkpt>
      <trkpt lat="43.19826" lon="5.75355">
        <ele>139.60000610352</ele>
        <time>2016-04-18T14:01:42.000Z</time>
      </trkpt>
      <trkpt lat="43.19832" lon="5.75342">
        <ele>138.60000610352</ele>
        <time>2016-04-18T14:01:47.000Z</time>
      </trkpt>
      <trkpt lat="43.19834" lon="5.75338">
        <ele>138.39999389648</ele>
        <time>2016-04-18T14:01:48.000Z</time>
      </trkpt>
      <trkpt lat="43.19838" lon="5.75325">
        <ele>138.19999694824</ele>
        <time>2016-04-18T14:01:52.000Z</time>
      </trkpt>
      <trkpt lat="43.19842" lon="5.75317">
        <ele>137.60000610352</ele>
        <time>2016-04-18T14:01:55.000Z</time>
      </trkpt>
      <trkpt lat="43.19846" lon="5.75311">
        <ele>137</ele>
        <time>2016-04-18T14:01:58.000Z</time>
      </trkpt>
      <trkpt lat="43.19854" lon="5.75296">
        <ele>135.19999694824</ele>
        <time>2016-04-18T14:02:04.000Z</time>
      </trkpt>
      <trkpt lat="43.19856" lon="5.7529">
        <ele>134.39999389648</ele>
        <time>2016-04-18T14:02:06.000Z</time>
      </trkpt>
      <trkpt lat="43.19864" lon="5.75277">
        <ele>132.60000610352</ele>
        <time>2016-04-18T14:02:11.000Z</time>
      </trkpt>
      <trkpt lat="43.19865" lon="5.75274">
        <ele>132.19999694824</ele>
        <time>2016-04-18T14:02:12.000Z</time>
      </trkpt>
      <trkpt lat="43.19873" lon="5.7526">
        <ele>130.19999694824</ele>
        <time>2016-04-18T14:02:18.000Z</time>
      </trkpt>
      <trkpt lat="43.19874" lon="5.75256">
        <ele>130.19999694824</ele>
        <time>2016-04-18T14:02:19.000Z</time>
      </trkpt>
      <trkpt lat="43.19876" lon="5.75246">
        <ele>130</ele>
        <time>2016-04-18T14:02:22.000Z</time>
      </trkpt>
      <trkpt lat="43.1988" lon="5.75233">
        <ele>129</ele>
        <time>2016-04-18T14:02:27.000Z</time>
      </trkpt>
      <trkpt lat="43.19882" lon="5.75225">
        <ele>128.80000305176</ele>
        <time>2016-04-18T14:02:30.000Z</time>
      </trkpt>
      <trkpt lat="43.19883" lon="5.75222">
        <ele>128.60000610352</ele>
        <time>2016-04-18T14:02:31.000Z</time>
      </trkpt>
      <trkpt lat="43.19884" lon="5.7522">
        <ele>128.19999694824</ele>
        <time>2016-04-18T14:02:32.000Z</time>
      </trkpt>
      <trkpt lat="43.1989" lon="5.75202">
        <ele>126.80000305176</ele>
        <time>2016-04-18T14:02:39.000Z</time>
      </trkpt>
      <trkpt lat="43.19894" lon="5.75192">
        <ele>125.80000305176</ele>
        <time>2016-04-18T14:02:43.000Z</time>
      </trkpt>
      <trkpt lat="43.19897" lon="5.75183">
        <ele>124.59999847412</ele>
        <time>2016-04-18T14:03:09.000Z</time>
      </trkpt>
      <trkpt lat="43.19899" lon="5.75171">
        <ele>124</ele>
        <time>2016-04-18T14:03:12.000Z</time>
      </trkpt>
      <trkpt lat="43.19902" lon="5.75163">
        <ele>123.19999694824</ele>
        <time>2016-04-18T14:03:14.000Z</time>
      </trkpt>
      <trkpt lat="43.19907" lon="5.7515">
        <ele>121.40000152588</ele>
        <time>2016-04-18T14:03:18.000Z</time>
      </trkpt>
      <trkpt lat="43.19908" lon="5.75147">
        <ele>121</ele>
        <time>2016-04-18T14:03:19.000Z</time>
      </trkpt>
      <trkpt lat="43.19912" lon="5.75134">
        <ele>119.40000152588</ele>
        <time>2016-04-18T14:03:23.000Z</time>
      </trkpt>
      <trkpt lat="43.19914" lon="5.75124">
        <ele>118</ele>
        <time>2016-04-18T14:03:26.000Z</time>
      </trkpt>
      <trkpt lat="43.19915" lon="5.75121">
        <ele>117.59999847412</ele>
        <time>2016-04-18T14:03:27.000Z</time>
      </trkpt>
      <trkpt lat="43.19921" lon="5.75096">
        <ele>114.40000152588</ele>
        <time>2016-04-18T14:03:34.000Z</time>
      </trkpt>
      <trkpt lat="43.19923" lon="5.75082">
        <ele>113.19999694824</ele>
        <time>2016-04-18T14:03:38.000Z</time>
      </trkpt>
      <trkpt lat="43.19923" lon="5.75076">
        <ele>113</ele>
        <time>2016-04-18T14:03:40.000Z</time>
      </trkpt>
      <trkpt lat="43.19923" lon="5.7507">
        <ele>112.80000305176</ele>
        <time>2016-04-18T14:03:42.000Z</time>
      </trkpt>
      <trkpt lat="43.19922" lon="5.75064">
        <ele>113.19999694824</ele>
        <time>2016-04-18T14:04:33.000Z</time>
      </trkpt>
      <trkpt lat="43.19921" lon="5.75044">
        <ele>112.80000305176</ele>
        <time>2016-04-18T14:04:39.000Z</time>
      </trkpt>
      <trkpt lat="43.19919" lon="5.75027">
        <ele>113.59999847412</ele>
        <time>2016-04-18T14:04:46.000Z</time>
      </trkpt>
      <trkpt lat="43.1992" lon="5.75008">
        <ele>113.59999847412</ele>
        <time>2016-04-18T14:04:52.000Z</time>
      </trkpt>
      <trkpt lat="43.1992" lon="5.75">
        <ele>113.40000152588</ele>
        <time>2016-04-18T14:04:54.000Z</time>
      </trkpt>
      <trkpt lat="43.19924" lon="5.74975">
        <ele>112.40000152588</ele>
        <time>2016-04-18T14:05:00.000Z</time>
      </trkpt>
      <trkpt lat="43.19926" lon="5.74951">
        <ele>111.80000305176</ele>
        <time>2016-04-18T14:05:05.000Z</time>
      </trkpt>
      <trkpt lat="43.19927" lon="5.74942">
        <ele>111.59999847412</ele>
        <time>2016-04-18T14:05:07.000Z</time>
      </trkpt>
      <trkpt lat="43.19933" lon="5.74897">
        <ele>110.19999694824</ele>
        <time>2016-04-18T14:05:17.000Z</time>
      </trkpt>
      <trkpt lat="43.19935" lon="5.74889">
        <ele>110</ele>
        <time>2016-04-18T14:05:19.000Z</time>
      </trkpt>
      <trkpt lat="43.19945" lon="5.74851">
        <ele>109</ele>
        <time>2016-04-18T14:05:29.000Z</time>
      </trkpt>
      <trkpt lat="43.19946" lon="5.74847">
        <ele>109</ele>
        <time>2016-04-18T14:05:30.000Z</time>
      </trkpt>
      <trkpt lat="43.19953" lon="5.74821">
        <ele>108</ele>
        <time>2016-04-18T14:05:36.000Z</time>
      </trkpt>
      <trkpt lat="43.19957" lon="5.74807">
        <ele>107.19999694824</ele>
        <time>2016-04-18T14:05:39.000Z</time>
      </trkpt>
      <trkpt lat="43.19964" lon="5.74789">
        <ele>106.80000305176</ele>
        <time>2016-04-18T14:05:43.000Z</time>
      </trkpt>
      <trkpt lat="43.19974" lon="5.74754">
        <ele>106.59999847412</ele>
        <time>2016-04-18T14:05:50.000Z</time>
      </trkpt>
      <trkpt lat="43.19975" lon="5.74749">
        <ele>106.59999847412</ele>
        <time>2016-04-18T14:05:51.000Z</time>
      </trkpt>
      <trkpt lat="43.1998" lon="5.74729">
        <ele>106.40000152588</ele>
        <time>2016-04-18T14:05:56.000Z</time>
      </trkpt>
      <trkpt lat="43.19982" lon="5.74726">
        <ele>106.19999694824</ele>
        <time>2016-04-18T14:05:57.000Z</time>
      </trkpt>
      <trkpt lat="43.19986" lon="5.74712">
        <ele>106</ele>
        <time>2016-04-18T14:06:01.000Z</time>
      </trkpt>
      <trkpt lat="43.19992" lon="5.74692">
        <ele>105.59999847412</ele>
        <time>2016-04-18T14:06:07.000Z</time>
      </trkpt>
      <trkpt lat="43.19993" lon="5.74689">
        <ele>105.59999847412</ele>
        <time>2016-04-18T14:06:09.000Z</time>
      </trkpt>
      <trkpt lat="43.19996" lon="5.7468">
        <ele>105.19999694824</ele>
        <time>2016-04-18T14:06:34.000Z</time>
      </trkpt>
      <trkpt lat="43.20006" lon="5.74669">
        <ele>103.40000152588</ele>
        <time>2016-04-18T14:06:41.000Z</time>
      </trkpt>
      <trkpt lat="43.20023" lon="5.74655">
        <ele>101.59999847412</ele>
        <time>2016-04-18T14:06:48.000Z</time>
      </trkpt>
      <trkpt lat="43.20025" lon="5.74653">
        <ele>101.59999847412</ele>
        <time>2016-04-18T14:06:49.000Z</time>
      </trkpt>
      <trkpt lat="43.20035" lon="5.74643">
        <ele>100.40000152588</ele>
        <time>2016-04-18T14:06:55.000Z</time>
      </trkpt>
      <trkpt lat="43.20046" lon="5.74625">
        <ele>100</ele>
        <time>2016-04-18T14:07:02.000Z</time>
      </trkpt>
      <trkpt lat="43.20054" lon="5.7461">
        <ele>100.19999694824</ele>
        <time>2016-04-18T14:07:07.000Z</time>
      </trkpt>
      <trkpt lat="43.20056" lon="5.74604">
        <ele>100.19999694824</ele>
        <time>2016-04-18T14:07:09.000Z</time>
      </trkpt>
      <trkpt lat="43.20063" lon="5.74581">
        <ele>100</ele>
        <time>2016-04-18T14:07:17.000Z</time>
      </trkpt>
      <trkpt lat="43.20066" lon="5.74577">
        <ele>99.599998474121</ele>
        <time>2016-04-18T14:07:19.000Z</time>
      </trkpt>
      <trkpt lat="43.20068" lon="5.74577">
        <ele>99.400001525879</ele>
        <time>2016-04-18T14:07:20.000Z</time>
      </trkpt>
      <trkpt lat="43.2007" lon="5.74577">
        <ele>99</ele>
        <time>2016-04-18T14:07:21.000Z</time>
      </trkpt>
      <trkpt lat="43.20074" lon="5.74579">
        <ele>98.400001525879</ele>
        <time>2016-04-18T14:07:23.000Z</time>
      </trkpt>
      <trkpt lat="43.20076" lon="5.74581">
        <ele>98</ele>
        <time>2016-04-18T14:07:24.000Z</time>
      </trkpt>
      <trkpt lat="43.20086" lon="5.74585">
        <ele>96.599998474121</ele>
        <time>2016-04-18T14:07:27.000Z</time>
      </trkpt>
      <trkpt lat="43.201" lon="5.74588">
        <ele>94.800003051758</ele>
        <time>2016-04-18T14:07:30.000Z</time>
      </trkpt>
      <trkpt lat="43.2011" lon="5.74592">
        <ele>94.199996948242</ele>
        <time>2016-04-18T14:07:32.000Z</time>
      </trkpt>
      <trkpt lat="43.20119" lon="5.74594">
        <ele>93.599998474121</ele>
        <time>2016-04-18T14:07:34.000Z</time>
      </trkpt>
      <trkpt lat="43.20123" lon="5.74595">
        <ele>93.400001525879</ele>
        <time>2016-04-18T14:07:35.000Z</time>
      </trkpt>
      <trkpt lat="43.20132" lon="5.74599">
        <ele>92.800003051758</ele>
        <time>2016-04-18T14:07:37.000Z</time>
      </trkpt>
      <trkpt lat="43.20136" lon="5.746">
        <ele>92.400001525879</ele>
        <time>2016-04-18T14:07:38.000Z</time>
      </trkpt>
      <trkpt lat="43.20151" lon="5.74604">
        <ele>91.199996948242</ele>
        <time>2016-04-18T14:07:41.000Z</time>
      </trkpt>
      <trkpt lat="43.20176" lon="5.7461">
        <ele>88.800003051758</ele>
        <time>2016-04-18T14:07:46.000Z</time>
      </trkpt>
      <trkpt lat="43.20205" lon="5.74615">
        <ele>88.400001525879</ele>
        <time>2016-04-18T14:07:53.000Z</time>
      </trkpt>
      <trkpt lat="43.20216" lon="5.74617">
        <ele>88.400001525879</ele>
        <time>2016-04-18T14:07:58.000Z</time>
      </trkpt>
      <trkpt lat="43.20221" lon="5.7461">
        <ele>88.199996948242</ele>
        <time>2016-04-18T14:08:56.000Z</time>
      </trkpt>
      <trkpt lat="43.20222" lon="5.74606">
        <ele>88</ele>
        <time>2016-04-18T14:08:58.000Z</time>
      </trkpt>
      <trkpt lat="43.20226" lon="5.74585">
        <ele>88</ele>
        <time>2016-04-18T14:09:04.000Z</time>
      </trkpt>
      <trkpt lat="43.20235" lon="5.74548">
        <ele>88.199996948242</ele>
        <time>2016-04-18T14:09:12.000Z</time>
      </trkpt>
      <trkpt lat="43.20244" lon="5.74492">
        <ele>89.599998474121</ele>
        <time>2016-04-18T14:09:22.000Z</time>
      </trkpt>
      <trkpt lat="43.20251" lon="5.74442">
        <ele>90.800003051758</ele>
        <time>2016-04-18T14:09:31.000Z</time>
      </trkpt>
      <trkpt lat="43.20252" lon="5.74432">
        <ele>90.800003051758</ele>
        <time>2016-04-18T14:09:33.000Z</time>
      </trkpt>
      <trkpt lat="43.20255" lon="5.7439">
        <ele>91.199996948242</ele>
        <time>2016-04-18T14:09:41.000Z</time>
      </trkpt>
      <trkpt lat="43.2026" lon="5.74328">
        <ele>91.800003051758</ele>
        <time>2016-04-18T14:09:52.000Z</time>
      </trkpt>
      <trkpt lat="43.20263" lon="5.74294">
        <ele>92</ele>
        <time>2016-04-18T14:09:58.000Z</time>
      </trkpt>
      <trkpt lat="43.20263" lon="5.74278">
        <ele>92.199996948242</ele>
        <time>2016-04-18T14:10:01.000Z</time>
      </trkpt>
      <trkpt lat="43.20258" lon="5.7424">
        <ele>93</ele>
        <time>2016-04-18T14:10:08.000Z</time>
      </trkpt>
      <trkpt lat="43.20246" lon="5.74207">
        <ele>94.800003051758</ele>
        <time>2016-04-18T14:10:15.000Z</time>
      </trkpt>
      <trkpt lat="43.2024" lon="5.74194">
        <ele>95.800003051758</ele>
        <time>2016-04-18T14:10:18.000Z</time>
      </trkpt>
      <trkpt lat="43.20232" lon="5.74177">
        <ele>96.800003051758</ele>
        <time>2016-04-18T14:10:23.000Z</time>
      </trkpt>
      <trkpt lat="43.20232" lon="5.74171">
        <ele>97</ele>
        <time>2016-04-18T14:10:25.000Z</time>
      </trkpt>
      <trkpt lat="43.20234" lon="5.74158">
        <ele>97.199996948242</ele>
        <time>2016-04-18T14:10:28.000Z</time>
      </trkpt>
      <trkpt lat="43.20239" lon="5.74138">
        <ele>97.199996948242</ele>
        <time>2016-04-18T14:10:32.000Z</time>
      </trkpt>
      <trkpt lat="43.20242" lon="5.74111">
        <ele>97.199996948242</ele>
        <time>2016-04-18T14:10:37.000Z</time>
      </trkpt>
      <trkpt lat="43.20245" lon="5.74053">
        <ele>98.400001525879</ele>
        <time>2016-04-18T14:10:47.000Z</time>
      </trkpt>
      <trkpt lat="43.20246" lon="5.74005">
        <ele>99</ele>
        <time>2016-04-18T14:10:56.000Z</time>
      </trkpt>
      <trkpt lat="43.20251" lon="5.73989">
        <ele>98.599998474121</ele>
        <time>2016-04-18T14:11:01.000Z</time>
      </trkpt>
      <trkpt lat="43.20254" lon="5.73986">
        <ele>98.400001525879</ele>
        <time>2016-04-18T14:11:11.000Z</time>
      </trkpt>
      <trkpt lat="43.20256" lon="5.73985">
        <ele>98.199996948242</ele>
        <time>2016-04-18T14:11:12.000Z</time>
      </trkpt>
      <trkpt lat="43.20274" lon="5.73983">
        <ele>97</ele>
        <time>2016-04-18T14:11:16.000Z</time>
      </trkpt>
      <trkpt lat="43.20306" lon="5.7398">
        <ele>94.599998474121</ele>
        <time>2016-04-18T14:11:23.000Z</time>
      </trkpt>
      <trkpt lat="43.20314" lon="5.73981">
        <ele>94.199996948242</ele>
        <time>2016-04-18T14:11:26.000Z</time>
      </trkpt>
      <trkpt lat="43.20316" lon="5.7398">
        <ele>94</ele>
        <time>2016-04-18T14:11:27.000Z</time>
      </trkpt>
      <trkpt lat="43.20317" lon="5.73977">
        <ele>94</ele>
        <time>2016-04-18T14:11:28.000Z</time>
      </trkpt>
      <trkpt lat="43.20317" lon="5.73971">
        <ele>94</ele>
        <time>2016-04-18T14:11:30.000Z</time>
      </trkpt>
      <trkpt lat="43.20316" lon="5.73944">
        <ele>94</ele>
        <time>2016-04-18T14:11:37.000Z</time>
      </trkpt>
      <trkpt lat="43.20314" lon="5.73912">
        <ele>94.599998474121</ele>
        <time>2016-04-18T14:11:43.000Z</time>
      </trkpt>
      <trkpt lat="43.20311" lon="5.73859">
        <ele>95</ele>
        <time>2016-04-18T14:11:52.000Z</time>
      </trkpt>
      <trkpt lat="43.20311" lon="5.73828">
        <ele>94.199996948242</ele>
        <time>2016-04-18T14:11:57.000Z</time>
      </trkpt>
      <trkpt lat="43.2031" lon="5.73803">
        <ele>93.400001525879</ele>
        <time>2016-04-18T14:12:01.000Z</time>
      </trkpt>
      <trkpt lat="43.20308" lon="5.73732">
        <ele>93.199996948242</ele>
        <time>2016-04-18T14:12:12.000Z</time>
      </trkpt>
      <trkpt lat="43.20307" lon="5.73712">
        <ele>92.800003051758</ele>
        <time>2016-04-18T14:12:15.000Z</time>
      </trkpt>
      <trkpt lat="43.20305" lon="5.73659">
        <ele>91.199996948242</ele>
        <time>2016-04-18T14:12:23.000Z</time>
      </trkpt>
      <trkpt lat="43.20305" lon="5.73639">
        <ele>91</ele>
        <time>2016-04-18T14:12:26.000Z</time>
      </trkpt>
      <trkpt lat="43.20304" lon="5.73594">
        <ele>89.400001525879</ele>
        <time>2016-04-18T14:12:33.000Z</time>
      </trkpt>
      <trkpt lat="43.20304" lon="5.73542">
        <ele>88</ele>
        <time>2016-04-18T14:12:41.000Z</time>
      </trkpt>
      <trkpt lat="43.20304" lon="5.73536">
        <ele>87.800003051758</ele>
        <time>2016-04-18T14:12:42.000Z</time>
      </trkpt>
      <trkpt lat="43.20302" lon="5.7347">
        <ele>86</ele>
        <time>2016-04-18T14:12:52.000Z</time>
      </trkpt>
      <trkpt lat="43.20301" lon="5.73442">
        <ele>85.400001525879</ele>
        <time>2016-04-18T14:12:56.000Z</time>
      </trkpt>
      <trkpt lat="43.203" lon="5.73407">
        <ele>84.400001525879</ele>
        <time>2016-04-18T14:13:01.000Z</time>
      </trkpt>
      <trkpt lat="43.20299" lon="5.73355">
        <ele>82.400001525879</ele>
        <time>2016-04-18T14:13:08.000Z</time>
      </trkpt>
      <trkpt lat="43.20298" lon="5.73346">
        <ele>82.199996948242</ele>
        <time>2016-04-18T14:13:09.000Z</time>
      </trkpt>
      <trkpt lat="43.20296" lon="5.73305">
        <ele>82.400001525879</ele>
        <time>2016-04-18T14:13:14.000Z</time>
      </trkpt>
      <trkpt lat="43.20295" lon="5.73262">
        <ele>80.800003051758</ele>
        <time>2016-04-18T14:13:19.000Z</time>
      </trkpt>
      <trkpt lat="43.20294" lon="5.73253">
        <ele>80.599998474121</ele>
        <time>2016-04-18T14:13:20.000Z</time>
      </trkpt>
      <trkpt lat="43.20293" lon="5.73198">
        <ele>78.800003051758</ele>
        <time>2016-04-18T14:13:26.000Z</time>
      </trkpt>
      <trkpt lat="43.20293" lon="5.73189">
        <ele>78.599998474121</ele>
        <time>2016-04-18T14:13:27.000Z</time>
      </trkpt>
      <trkpt lat="43.20295" lon="5.7317">
        <ele>78.400001525879</ele>
        <time>2016-04-18T14:13:29.000Z</time>
      </trkpt>
      <trkpt lat="43.20302" lon="5.73132">
        <ele>76.400001525879</ele>
        <time>2016-04-18T14:13:33.000Z</time>
      </trkpt>
      <trkpt lat="43.20314" lon="5.73096">
        <ele>74.800003051758</ele>
        <time>2016-04-18T14:13:37.000Z</time>
      </trkpt>
      <trkpt lat="43.20321" lon="5.73068">
        <ele>74.400001525879</ele>
        <time>2016-04-18T14:13:40.000Z</time>
      </trkpt>
      <trkpt lat="43.20332" lon="5.73035">
        <ele>73.400001525879</ele>
        <time>2016-04-18T14:13:44.000Z</time>
      </trkpt>
      <trkpt lat="43.20337" lon="5.73011">
        <ele>72.599998474121</ele>
        <time>2016-04-18T14:13:47.000Z</time>
      </trkpt>
      <trkpt lat="43.20341" lon="5.72996">
        <ele>72</ele>
        <time>2016-04-18T14:13:49.000Z</time>
      </trkpt>
      <trkpt lat="43.20352" lon="5.72957">
        <ele>70.800003051758</ele>
        <time>2016-04-18T14:13:55.000Z</time>
      </trkpt>
      <trkpt lat="43.20354" lon="5.7295">
        <ele>70.599998474121</ele>
        <time>2016-04-18T14:13:56.000Z</time>
      </trkpt>
      <trkpt lat="43.20372" lon="5.72901">
        <ele>69.599998474121</ele>
        <time>2016-04-18T14:14:04.000Z</time>
      </trkpt>
      <trkpt lat="43.2038" lon="5.72877">
        <ele>69.400001525879</ele>
        <time>2016-04-18T14:14:08.000Z</time>
      </trkpt>
      <trkpt lat="43.20385" lon="5.72853">
        <ele>69.400001525879</ele>
        <time>2016-04-18T14:14:12.000Z</time>
      </trkpt>
      <trkpt lat="43.20389" lon="5.72812">
        <ele>68.599998474121</ele>
        <time>2016-04-18T14:14:18.000Z</time>
      </trkpt>
      <trkpt lat="43.20391" lon="5.72799">
        <ele>68.400001525879</ele>
        <time>2016-04-18T14:14:20.000Z</time>
      </trkpt>
      <trkpt lat="43.20393" lon="5.72773">
        <ele>68</ele>
        <time>2016-04-18T14:14:24.000Z</time>
      </trkpt>
      <trkpt lat="43.20397" lon="5.72737">
        <ele>68.800003051758</ele>
        <time>2016-04-18T14:14:30.000Z</time>
      </trkpt>
      <trkpt lat="43.204" lon="5.72714">
        <ele>69.199996948242</ele>
        <time>2016-04-18T14:14:34.000Z</time>
      </trkpt>
      <trkpt lat="43.20405" lon="5.72705">
        <ele>69</ele>
        <time>2016-04-18T14:14:36.000Z</time>
      </trkpt>
      <trkpt lat="43.20411" lon="5.72698">
        <ele>69.199996948242</ele>
        <time>2016-04-18T14:14:38.000Z</time>
      </trkpt>
      <trkpt lat="43.20426" lon="5.72677">
        <ele>70.800003051758</ele>
        <time>2016-04-18T14:14:43.000Z</time>
      </trkpt>
      <trkpt lat="43.20451" lon="5.7264">
        <ele>73</ele>
        <time>2016-04-18T14:14:52.000Z</time>
      </trkpt>
      <trkpt lat="43.20457" lon="5.72635">
        <ele>73.199996948242</ele>
        <time>2016-04-18T14:14:54.000Z</time>
      </trkpt>
      <trkpt lat="43.20462" lon="5.72633">
        <ele>73.400001525879</ele>
        <time>2016-04-18T14:14:56.000Z</time>
      </trkpt>
      <trkpt lat="43.20466" lon="5.72632">
        <ele>73.599998474121</ele>
        <time>2016-04-18T14:14:57.000Z</time>
      </trkpt>
      <trkpt lat="43.20487" lon="5.72623">
        <ele>74.199996948242</ele>
        <time>2016-04-18T14:15:03.000Z</time>
      </trkpt>
      <trkpt lat="43.205" lon="5.72616">
        <ele>74.599998474121</ele>
        <time>2016-04-18T14:15:06.000Z</time>
      </trkpt>
      <trkpt lat="43.20524" lon="5.72604">
        <ele>74.199996948242</ele>
        <time>2016-04-18T14:15:11.000Z</time>
      </trkpt>
      <trkpt lat="43.20555" lon="5.72587">
        <ele>73.400001525879</ele>
        <time>2016-04-18T14:15:18.000Z</time>
      </trkpt>
      <trkpt lat="43.20559" lon="5.72585">
        <ele>73.400001525879</ele>
        <time>2016-04-18T14:15:19.000Z</time>
      </trkpt>
      <trkpt lat="43.20569" lon="5.72579">
        <ele>73.199996948242</ele>
        <time>2016-04-18T14:15:22.000Z</time>
      </trkpt>
      <trkpt lat="43.20581" lon="5.72571">
        <ele>73.199996948242</ele>
        <time>2016-04-18T14:15:26.000Z</time>
      </trkpt>
      <trkpt lat="43.20601" lon="5.72553">
        <ele>73.199996948242</ele>
        <time>2016-04-18T14:15:32.000Z</time>
      </trkpt>
      <trkpt lat="43.20609" lon="5.72545">
        <ele>73</ele>
        <time>2016-04-18T14:15:36.000Z</time>
      </trkpt>
      <trkpt lat="43.20611" lon="5.72543">
        <ele>73</ele>
        <time>2016-04-18T14:15:37.000Z</time>
      </trkpt>
      <trkpt lat="43.20621" lon="5.72536">
        <ele>73</ele>
        <time>2016-04-18T14:15:42.000Z</time>
      </trkpt>
      <trkpt lat="43.20626" lon="5.72532">
        <ele>73</ele>
        <time>2016-04-18T14:15:44.000Z</time>
      </trkpt>
      <trkpt lat="43.20638" lon="5.72522">
        <ele>72.800003051758</ele>
        <time>2016-04-18T14:15:48.000Z</time>
      </trkpt>
      <trkpt lat="43.20653" lon="5.72508">
        <ele>72.800003051758</ele>
        <time>2016-04-18T14:15:54.000Z</time>
      </trkpt>
      <trkpt lat="43.20675" lon="5.7249">
        <ele>72.599998474121</ele>
        <time>2016-04-18T14:16:01.000Z</time>
      </trkpt>
      <trkpt lat="43.20696" lon="5.72472">
        <ele>71.800003051758</ele>
        <time>2016-04-18T14:16:08.000Z</time>
      </trkpt>
      <trkpt lat="43.20714" lon="5.7245">
        <ele>70.400001525879</ele>
        <time>2016-04-18T14:16:15.000Z</time>
      </trkpt>
      <trkpt lat="43.20724" lon="5.72432">
        <ele>69.199996948242</ele>
        <time>2016-04-18T14:16:21.000Z</time>
      </trkpt>
      <trkpt lat="43.2073" lon="5.72418">
        <ele>69</ele>
        <time>2016-04-18T14:16:27.000Z</time>
      </trkpt>
      <trkpt lat="43.20738" lon="5.72403">
        <ele>68.800003051758</ele>
        <time>2016-04-18T14:16:33.000Z</time>
      </trkpt>
      <trkpt lat="43.20756" lon="5.72373">
        <ele>68.599998474121</ele>
        <time>2016-04-18T14:16:42.000Z</time>
      </trkpt>
      <trkpt lat="43.20776" lon="5.72338">
        <ele>68.199996948242</ele>
        <time>2016-04-18T14:16:51.000Z</time>
      </trkpt>
      <trkpt lat="43.20792" lon="5.72312">
        <ele>68.199996948242</ele>
        <time>2016-04-18T14:16:57.000Z</time>
      </trkpt>
      <trkpt lat="43.20818" lon="5.72266">
        <ele>68.800003051758</ele>
        <time>2016-04-18T14:17:07.000Z</time>
      </trkpt>
      <trkpt lat="43.20836" lon="5.72236">
        <ele>69</ele>
        <time>2016-04-18T14:17:14.000Z</time>
      </trkpt>
      <trkpt lat="43.20864" lon="5.72197">
        <ele>70.800003051758</ele>
        <time>2016-04-18T14:17:24.000Z</time>
      </trkpt>
      <trkpt lat="43.20876" lon="5.72182">
        <ele>71.800003051758</ele>
        <time>2016-04-18T14:17:28.000Z</time>
      </trkpt>
      <trkpt lat="43.20893" lon="5.72159">
        <ele>72.800003051758</ele>
        <time>2016-04-18T14:17:34.000Z</time>
      </trkpt>
      <trkpt lat="43.20901" lon="5.72148">
        <ele>73</ele>
        <time>2016-04-18T14:17:37.000Z</time>
      </trkpt>
      <trkpt lat="43.20919" lon="5.72126">
        <ele>74</ele>
        <time>2016-04-18T14:17:43.000Z</time>
      </trkpt>
      <trkpt lat="43.20931" lon="5.72112">
        <ele>75.800003051758</ele>
        <time>2016-04-18T14:17:47.000Z</time>
      </trkpt>
      <trkpt lat="43.20948" lon="5.72099">
        <ele>78.800003051758</ele>
        <time>2016-04-18T14:17:52.000Z</time>
      </trkpt>
      <trkpt lat="43.20951" lon="5.72097">
        <ele>79.400001525879</ele>
        <time>2016-04-18T14:17:53.000Z</time>
      </trkpt>
      <trkpt lat="43.20981" lon="5.72077">
        <ele>82.400001525879</ele>
        <time>2016-04-18T14:18:02.000Z</time>
      </trkpt>
      <trkpt lat="43.20994" lon="5.72063">
        <ele>83</ele>
        <time>2016-04-18T14:18:07.000Z</time>
      </trkpt>
      <trkpt lat="43.20996" lon="5.72059">
        <ele>83</ele>
        <time>2016-04-18T14:18:08.000Z</time>
      </trkpt>
      <trkpt lat="43.20999" lon="5.72052">
        <ele>83.199996948242</ele>
        <time>2016-04-18T14:18:10.000Z</time>
      </trkpt>
      <trkpt lat="43.21007" lon="5.72038">
        <ele>84</ele>
        <time>2016-04-18T14:18:14.000Z</time>
      </trkpt>
      <trkpt lat="43.21011" lon="5.72032">
        <ele>84.199996948242</ele>
        <time>2016-04-18T14:18:16.000Z</time>
      </trkpt>
      <trkpt lat="43.21017" lon="5.72024">
        <ele>85</ele>
        <time>2016-04-18T14:18:19.000Z</time>
      </trkpt>
      <trkpt lat="43.21022" lon="5.72015">
        <ele>85.800003051758</ele>
        <time>2016-04-18T14:18:22.000Z</time>
      </trkpt>
      <trkpt lat="43.21023" lon="5.72011">
        <ele>86</ele>
        <time>2016-04-18T14:18:23.000Z</time>
      </trkpt>
      <trkpt lat="43.21027" lon="5.72002">
        <ele>86.599998474121</ele>
        <time>2016-04-18T14:18:26.000Z</time>
      </trkpt>
      <trkpt lat="43.21034" lon="5.71988">
        <ele>87.599998474121</ele>
        <time>2016-04-18T14:18:30.000Z</time>
      </trkpt>
      <trkpt lat="43.21039" lon="5.71974">
        <ele>88</ele>
        <time>2016-04-18T14:18:34.000Z</time>
      </trkpt>
      <trkpt lat="43.21045" lon="5.71961">
        <ele>89</ele>
        <time>2016-04-18T14:18:38.000Z</time>
      </trkpt>
      <trkpt lat="43.21059" lon="5.71943">
        <ele>91.400001525879</ele>
        <time>2016-04-18T14:18:44.000Z</time>
      </trkpt>
      <trkpt lat="43.21062" lon="5.71938">
        <ele>92</ele>
        <time>2016-04-18T14:18:46.000Z</time>
      </trkpt>
      <trkpt lat="43.21064" lon="5.71935">
        <ele>92.199996948242</ele>
        <time>2016-04-18T14:18:47.000Z</time>
      </trkpt>
      <trkpt lat="43.21065" lon="5.71929">
        <ele>92.199996948242</ele>
        <time>2016-04-18T14:18:49.000Z</time>
      </trkpt>
      <trkpt lat="43.21069" lon="5.7192">
        <ele>92.400001525879</ele>
        <time>2016-04-18T14:18:52.000Z</time>
      </trkpt>
      <trkpt lat="43.21073" lon="5.71914">
        <ele>92.599998474121</ele>
        <time>2016-04-18T14:18:55.000Z</time>
      </trkpt>
      <trkpt lat="43.21076" lon="5.71909">
        <ele>92.800003051758</ele>
        <time>2016-04-18T14:18:59.000Z</time>
      </trkpt>
      <trkpt lat="43.21079" lon="5.71911">
        <ele>93</ele>
        <time>2016-04-18T14:19:01.000Z</time>
      </trkpt>
      <trkpt lat="43.21082" lon="5.71917">
        <ele>93.199996948242</ele>
        <time>2016-04-18T14:19:03.000Z</time>
      </trkpt>
      <trkpt lat="43.21087" lon="5.71926">
        <ele>93.599998474121</ele>
        <time>2016-04-18T14:19:06.000Z</time>
      </trkpt>
      <trkpt lat="43.21092" lon="5.71937">
        <ele>93.800003051758</ele>
        <time>2016-04-18T14:19:09.000Z</time>
      </trkpt>
      <trkpt lat="43.21096" lon="5.71957">
        <ele>94.199996948242</ele>
        <time>2016-04-18T14:19:14.000Z</time>
      </trkpt>
      <trkpt lat="43.21096" lon="5.71962">
        <ele>94</ele>
        <time>2016-04-18T14:19:15.000Z</time>
      </trkpt>
      <trkpt lat="43.21092" lon="5.71977">
        <ele>93.800003051758</ele>
        <time>2016-04-18T14:19:18.000Z</time>
      </trkpt>
      <trkpt lat="43.21085" lon="5.71993">
        <ele>93.199996948242</ele>
        <time>2016-04-18T14:19:21.000Z</time>
      </trkpt>
      <trkpt lat="43.21074" lon="5.72027">
        <ele>92.400001525879</ele>
        <time>2016-04-18T14:19:28.000Z</time>
      </trkpt>
      <trkpt lat="43.21073" lon="5.72043">
        <ele>92.199996948242</ele>
        <time>2016-04-18T14:19:31.000Z</time>
      </trkpt>
      <trkpt lat="43.21075" lon="5.72054">
        <ele>92.400001525879</ele>
        <time>2016-04-18T14:19:33.000Z</time>
      </trkpt>
      <trkpt lat="43.2109" lon="5.72101">
        <ele>94.800003051758</ele>
        <time>2016-04-18T14:19:42.000Z</time>
      </trkpt>
      <trkpt lat="43.21099" lon="5.72137">
        <ele>96.199996948242</ele>
        <time>2016-04-18T14:19:49.000Z</time>
      </trkpt>
      <trkpt lat="43.21103" lon="5.72145">
        <ele>96</ele>
        <time>2016-04-18T14:19:51.000Z</time>
      </trkpt>
      <trkpt lat="43.21106" lon="5.7216">
        <ele>95.800003051758</ele>
        <time>2016-04-18T14:19:54.000Z</time>
      </trkpt>
      <trkpt lat="43.21118" lon="5.72205">
        <ele>95</ele>
        <time>2016-04-18T14:20:02.000Z</time>
      </trkpt>
      <trkpt lat="43.21131" lon="5.7225">
        <ele>94.599998474121</ele>
        <time>2016-04-18T14:20:09.000Z</time>
      </trkpt>
      <trkpt lat="43.21136" lon="5.7226">
        <ele>94.599998474121</ele>
        <time>2016-04-18T14:20:11.000Z</time>
      </trkpt>
      <trkpt lat="43.21147" lon="5.72279">
        <ele>94.400001525879</ele>
        <time>2016-04-18T14:20:15.000Z</time>
      </trkpt>
      <trkpt lat="43.21165" lon="5.72318">
        <ele>94.599998474121</ele>
        <time>2016-04-18T14:20:21.000Z</time>
      </trkpt>
      <trkpt lat="43.21172" lon="5.72335">
        <ele>94.800003051758</ele>
        <time>2016-04-18T14:20:24.000Z</time>
      </trkpt>
      <trkpt lat="43.21176" lon="5.72345">
        <ele>95</ele>
        <time>2016-04-18T14:20:26.000Z</time>
      </trkpt>
      <trkpt lat="43.21189" lon="5.72376">
        <ele>95.599998474121</ele>
        <time>2016-04-18T14:20:33.000Z</time>
      </trkpt>
      <trkpt lat="43.21192" lon="5.72384">
        <ele>95.800003051758</ele>
        <time>2016-04-18T14:20:35.000Z</time>
      </trkpt>
      <trkpt lat="43.21205" lon="5.72416">
        <ele>95.800003051758</ele>
        <time>2016-04-18T14:20:43.000Z</time>
      </trkpt>
      <trkpt lat="43.21212" lon="5.72431">
        <ele>95.800003051758</ele>
        <time>2016-04-18T14:20:46.000Z</time>
      </trkpt>
      <trkpt lat="43.21222" lon="5.72448">
        <ele>95.800003051758</ele>
        <time>2016-04-18T14:20:49.000Z</time>
      </trkpt>
      <trkpt lat="43.21249" lon="5.72497">
        <ele>97.199996948242</ele>
        <time>2016-04-18T14:20:58.000Z</time>
      </trkpt>
      <trkpt lat="43.21258" lon="5.72517">
        <ele>98.199996948242</ele>
        <time>2016-04-18T14:21:04.000Z</time>
      </trkpt>
      <trkpt lat="43.21262" lon="5.72518">
        <ele>98.599998474121</ele>
        <time>2016-04-18T14:21:07.000Z</time>
      </trkpt>
      <trkpt lat="43.21264" lon="5.72517">
        <ele>98.800003051758</ele>
        <time>2016-04-18T14:21:08.000Z</time>
      </trkpt>
      <trkpt lat="43.21267" lon="5.72512">
        <ele>99</ele>
        <time>2016-04-18T14:21:10.000Z</time>
      </trkpt>
      <trkpt lat="43.21271" lon="5.72506">
        <ele>99.199996948242</ele>
        <time>2016-04-18T14:21:13.000Z</time>
      </trkpt>
      <trkpt lat="43.21272" lon="5.72503">
        <ele>99.400001525879</ele>
        <time>2016-04-18T14:21:14.000Z</time>
      </trkpt>
      <trkpt lat="43.21274" lon="5.72501">
        <ele>99.599998474121</ele>
        <time>2016-04-18T14:21:15.000Z</time>
      </trkpt>
      <trkpt lat="43.21276" lon="5.72499">
        <ele>99.800003051758</ele>
        <time>2016-04-18T14:21:16.000Z</time>
      </trkpt>
      <trkpt lat="43.21284" lon="5.7249">
        <ele>100.40000152588</ele>
        <time>2016-04-18T14:21:19.000Z</time>
      </trkpt>
      <trkpt lat="43.21289" lon="5.72483">
        <ele>101</ele>
        <time>2016-04-18T14:21:21.000Z</time>
      </trkpt>
      <trkpt lat="43.21298" lon="5.72471">
        <ele>102.40000152588</ele>
        <time>2016-04-18T14:21:25.000Z</time>
      </trkpt>
      <trkpt lat="43.213" lon="5.72468">
        <ele>102.59999847412</ele>
        <time>2016-04-18T14:21:26.000Z</time>
      </trkpt>
      <trkpt lat="43.21302" lon="5.72465">
        <ele>103</ele>
        <time>2016-04-18T14:21:27.000Z</time>
      </trkpt>
      <trkpt lat="43.21307" lon="5.72456">
        <ele>103.80000305176</ele>
        <time>2016-04-18T14:21:30.000Z</time>
      </trkpt>
      <trkpt lat="43.21311" lon="5.72448">
        <ele>104.40000152588</ele>
        <time>2016-04-18T14:21:32.000Z</time>
      </trkpt>
      <trkpt lat="43.2132" lon="5.72432">
        <ele>105.19999694824</ele>
        <time>2016-04-18T14:21:36.000Z</time>
      </trkpt>
      <trkpt lat="43.21329" lon="5.72414">
        <ele>105.40000152588</ele>
        <time>2016-04-18T14:21:40.000Z</time>
      </trkpt>
      <trkpt lat="43.21342" lon="5.7239">
        <ele>105.80000305176</ele>
        <time>2016-04-18T14:21:45.000Z</time>
      </trkpt>
      <trkpt lat="43.21353" lon="5.72369">
        <ele>106.59999847412</ele>
        <time>2016-04-18T14:21:49.000Z</time>
      </trkpt>
      <trkpt lat="43.21356" lon="5.72363">
        <ele>107</ele>
        <time>2016-04-18T14:21:50.000Z</time>
      </trkpt>
      <trkpt lat="43.21365" lon="5.72347">
        <ele>107.59999847412</ele>
        <time>2016-04-18T14:21:53.000Z</time>
      </trkpt>
      <trkpt lat="43.21377" lon="5.72327">
        <ele>108.80000305176</ele>
        <time>2016-04-18T14:21:57.000Z</time>
      </trkpt>
      <trkpt lat="43.21382" lon="5.72317">
        <ele>109.40000152588</ele>
        <time>2016-04-18T14:21:59.000Z</time>
      </trkpt>
      <trkpt lat="43.21387" lon="5.72308">
        <ele>110</ele>
        <time>2016-04-18T14:22:01.000Z</time>
      </trkpt>
      <trkpt lat="43.21403" lon="5.7228">
        <ele>112.59999847412</ele>
        <time>2016-04-18T14:22:07.000Z</time>
      </trkpt>
      <trkpt lat="43.21411" lon="5.72267">
        <ele>114</ele>
        <time>2016-04-18T14:22:10.000Z</time>
      </trkpt>
      <trkpt lat="43.21413" lon="5.72261">
        <ele>114.59999847412</ele>
        <time>2016-04-18T14:22:11.000Z</time>
      </trkpt>
      <trkpt lat="43.21417" lon="5.72251">
        <ele>115.40000152588</ele>
        <time>2016-04-18T14:22:13.000Z</time>
      </trkpt>
      <trkpt lat="43.21421" lon="5.72242">
        <ele>116.19999694824</ele>
        <time>2016-04-18T14:22:15.000Z</time>
      </trkpt>
      <trkpt lat="43.21426" lon="5.72232">
        <ele>117.19999694824</ele>
        <time>2016-04-18T14:22:17.000Z</time>
      </trkpt>
      <trkpt lat="43.21432" lon="5.72216">
        <ele>118.80000305176</ele>
        <time>2016-04-18T14:22:20.000Z</time>
      </trkpt>
      <trkpt lat="43.21442" lon="5.72196">
        <ele>121.19999694824</ele>
        <time>2016-04-18T14:22:24.000Z</time>
      </trkpt>
      <trkpt lat="43.21449" lon="5.72182">
        <ele>123</ele>
        <time>2016-04-18T14:22:27.000Z</time>
      </trkpt>
      <trkpt lat="43.21457" lon="5.72167">
        <ele>125</ele>
        <time>2016-04-18T14:22:30.000Z</time>
      </trkpt>
      <trkpt lat="43.21464" lon="5.72153">
        <ele>125.80000305176</ele>
        <time>2016-04-18T14:22:33.000Z</time>
      </trkpt>
      <trkpt lat="43.21467" lon="5.72149">
        <ele>126.19999694824</ele>
        <time>2016-04-18T14:22:34.000Z</time>
      </trkpt>
      <trkpt lat="43.21473" lon="5.72141">
        <ele>126.80000305176</ele>
        <time>2016-04-18T14:22:36.000Z</time>
      </trkpt>
      <trkpt lat="43.21482" lon="5.72128">
        <ele>127.80000305176</ele>
        <time>2016-04-18T14:22:39.000Z</time>
      </trkpt>
      <trkpt lat="43.21492" lon="5.72112">
        <ele>129.19999694824</ele>
        <time>2016-04-18T14:22:43.000Z</time>
      </trkpt>
      <trkpt lat="43.21494" lon="5.72107">
        <ele>129.39999389648</ele>
        <time>2016-04-18T14:22:44.000Z</time>
      </trkpt>
      <trkpt lat="43.21503" lon="5.72094">
        <ele>130.60000610352</ele>
        <time>2016-04-18T14:22:47.000Z</time>
      </trkpt>
      <trkpt lat="43.21508" lon="5.72085">
        <ele>131.19999694824</ele>
        <time>2016-04-18T14:22:49.000Z</time>
      </trkpt>
      <trkpt lat="43.21513" lon="5.72076">
        <ele>132</ele>
        <time>2016-04-18T14:22:51.000Z</time>
      </trkpt>
      <trkpt lat="43.21518" lon="5.72066">
        <ele>132.80000305176</ele>
        <time>2016-04-18T14:22:53.000Z</time>
      </trkpt>
      <trkpt lat="43.21526" lon="5.72051">
        <ele>134.19999694824</ele>
        <time>2016-04-18T14:22:56.000Z</time>
      </trkpt>
      <trkpt lat="43.2153" lon="5.72041">
        <ele>135.19999694824</ele>
        <time>2016-04-18T14:22:58.000Z</time>
      </trkpt>
      <trkpt lat="43.21532" lon="5.72036">
        <ele>135.60000610352</ele>
        <time>2016-04-18T14:22:59.000Z</time>
      </trkpt>
      <trkpt lat="43.21535" lon="5.72031">
        <ele>136.19999694824</ele>
        <time>2016-04-18T14:23:00.000Z</time>
      </trkpt>
      <trkpt lat="43.2154" lon="5.72021">
        <ele>137.19999694824</ele>
        <time>2016-04-18T14:23:02.000Z</time>
      </trkpt>
      <trkpt lat="43.21549" lon="5.72008">
        <ele>139</ele>
        <time>2016-04-18T14:23:05.000Z</time>
      </trkpt>
      <trkpt lat="43.21555" lon="5.72001">
        <ele>139.60000610352</ele>
        <time>2016-04-18T14:23:07.000Z</time>
      </trkpt>
      <trkpt lat="43.21557" lon="5.71997">
        <ele>139.80000305176</ele>
        <time>2016-04-18T14:23:08.000Z</time>
      </trkpt>
      <trkpt lat="43.21562" lon="5.71989">
        <ele>140.19999694824</ele>
        <time>2016-04-18T14:23:12.000Z</time>
      </trkpt>
      <trkpt lat="43.21562" lon="5.71985">
        <ele>140.19999694824</ele>
        <time>2016-04-18T14:23:53.000Z</time>
      </trkpt>
      <trkpt lat="43.21562" lon="5.71982">
        <ele>140.19999694824</ele>
        <time>2016-04-18T14:23:54.000Z</time>
      </trkpt>
      <trkpt lat="43.21563" lon="5.71964">
        <ele>140.39999389648</ele>
        <time>2016-04-18T14:23:58.000Z</time>
      </trkpt>
      <trkpt lat="43.21564" lon="5.71944">
        <ele>141.19999694824</ele>
        <time>2016-04-18T14:24:01.000Z</time>
      </trkpt>
      <trkpt lat="43.21563" lon="5.71937">
        <ele>141.39999389648</ele>
        <time>2016-04-18T14:24:02.000Z</time>
      </trkpt>
      <trkpt lat="43.21562" lon="5.71931">
        <ele>141.60000610352</ele>
        <time>2016-04-18T14:24:03.000Z</time>
      </trkpt>
      <trkpt lat="43.21558" lon="5.71906">
        <ele>142.80000305176</ele>
        <time>2016-04-18T14:24:07.000Z</time>
      </trkpt>
      <trkpt lat="43.21557" lon="5.71895">
        <ele>143.60000610352</ele>
        <time>2016-04-18T14:24:09.000Z</time>
      </trkpt>
      <trkpt lat="43.21558" lon="5.71889">
        <ele>144</ele>
        <time>2016-04-18T14:24:10.000Z</time>
      </trkpt>
      <trkpt lat="43.21558" lon="5.71884">
        <ele>144.19999694824</ele>
        <time>2016-04-18T14:24:11.000Z</time>
      </trkpt>
      <trkpt lat="43.2156" lon="5.71867">
        <ele>144.80000305176</ele>
        <time>2016-04-18T14:24:14.000Z</time>
      </trkpt>
      <trkpt lat="43.21562" lon="5.71856">
        <ele>145.19999694824</ele>
        <time>2016-04-18T14:24:16.000Z</time>
      </trkpt>
      <trkpt lat="43.21564" lon="5.71851">
        <ele>145.60000610352</ele>
        <time>2016-04-18T14:24:17.000Z</time>
      </trkpt>
      <trkpt lat="43.21566" lon="5.71846">
        <ele>146.39999389648</ele>
        <time>2016-04-18T14:24:18.000Z</time>
      </trkpt>
      <trkpt lat="43.21572" lon="5.7183">
        <ele>148.19999694824</ele>
        <time>2016-04-18T14:24:21.000Z</time>
      </trkpt>
      <trkpt lat="43.21578" lon="5.71814">
        <ele>150.19999694824</ele>
        <time>2016-04-18T14:24:24.000Z</time>
      </trkpt>
      <trkpt lat="43.21583" lon="5.71797">
        <ele>151.60000610352</ele>
        <time>2016-04-18T14:24:27.000Z</time>
      </trkpt>
      <trkpt lat="43.21589" lon="5.71775">
        <ele>152.60000610352</ele>
        <time>2016-04-18T14:24:31.000Z</time>
      </trkpt>
      <trkpt lat="43.21592" lon="5.71764">
        <ele>153</ele>
        <time>2016-04-18T14:24:33.000Z</time>
      </trkpt>
      <trkpt lat="43.21597" lon="5.71748">
        <ele>153.60000610352</ele>
        <time>2016-04-18T14:24:36.000Z</time>
      </trkpt>
      <trkpt lat="43.21598" lon="5.71743">
        <ele>153.60000610352</ele>
        <time>2016-04-18T14:24:37.000Z</time>
      </trkpt>
      <trkpt lat="43.21604" lon="5.71702">
        <ele>154.39999389648</ele>
        <time>2016-04-18T14:24:44.000Z</time>
      </trkpt>
      <trkpt lat="43.21605" lon="5.71697">
        <ele>154.60000610352</ele>
        <time>2016-04-18T14:24:45.000Z</time>
      </trkpt>
      <trkpt lat="43.21614" lon="5.71665">
        <ele>155.80000305176</ele>
        <time>2016-04-18T14:24:51.000Z</time>
      </trkpt>
      <trkpt lat="43.21615" lon="5.7166">
        <ele>156.19999694824</ele>
        <time>2016-04-18T14:24:52.000Z</time>
      </trkpt>
      <trkpt lat="43.21619" lon="5.71652">
        <ele>156.80000305176</ele>
        <time>2016-04-18T14:24:54.000Z</time>
      </trkpt>
      <trkpt lat="43.21627" lon="5.71638">
        <ele>158.19999694824</ele>
        <time>2016-04-18T14:24:57.000Z</time>
      </trkpt>
      <trkpt lat="43.21629" lon="5.71633">
        <ele>158.80000305176</ele>
        <time>2016-04-18T14:24:58.000Z</time>
      </trkpt>
      <trkpt lat="43.21632" lon="5.71629">
        <ele>159.60000610352</ele>
        <time>2016-04-18T14:24:59.000Z</time>
      </trkpt>
      <trkpt lat="43.21637" lon="5.7162">
        <ele>160.80000305176</ele>
        <time>2016-04-18T14:25:01.000Z</time>
      </trkpt>
      <trkpt lat="43.21646" lon="5.71607">
        <ele>163</ele>
        <time>2016-04-18T14:25:04.000Z</time>
      </trkpt>
      <trkpt lat="43.21651" lon="5.71598">
        <ele>163.80000305176</ele>
        <time>2016-04-18T14:25:06.000Z</time>
      </trkpt>
      <trkpt lat="43.21653" lon="5.71593">
        <ele>164.19999694824</ele>
        <time>2016-04-18T14:25:07.000Z</time>
      </trkpt>
      <trkpt lat="43.2166" lon="5.7158">
        <ele>165.19999694824</ele>
        <time>2016-04-18T14:25:10.000Z</time>
      </trkpt>
      <trkpt lat="43.21665" lon="5.71569">
        <ele>166</ele>
        <time>2016-04-18T14:25:13.000Z</time>
      </trkpt>
      <trkpt lat="43.21666" lon="5.71567">
        <ele>166.19999694824</ele>
        <time>2016-04-18T14:25:14.000Z</time>
      </trkpt>
      <trkpt lat="43.21669" lon="5.71566">
        <ele>166.60000610352</ele>
        <time>2016-04-18T14:25:15.000Z</time>
      </trkpt>
      <trkpt lat="43.21672" lon="5.71566">
        <ele>167</ele>
        <time>2016-04-18T14:25:16.000Z</time>
      </trkpt>
      <trkpt lat="43.21675" lon="5.71568">
        <ele>167.39999389648</ele>
        <time>2016-04-18T14:25:17.000Z</time>
      </trkpt>
      <trkpt lat="43.21681" lon="5.71582">
        <ele>168</ele>
        <time>2016-04-18T14:25:20.000Z</time>
      </trkpt>
      <trkpt lat="43.21681" lon="5.71585">
        <ele>168</ele>
        <time>2016-04-18T14:25:21.000Z</time>
      </trkpt>
      <trkpt lat="43.21681" lon="5.71598">
        <ele>167.80000305176</ele>
        <time>2016-04-18T14:25:24.000Z</time>
      </trkpt>
      <trkpt lat="43.2168" lon="5.71608">
        <ele>167.60000610352</ele>
        <time>2016-04-18T14:25:26.000Z</time>
      </trkpt>
      <trkpt lat="43.21683" lon="5.71634">
        <ele>167.60000610352</ele>
        <time>2016-04-18T14:25:31.000Z</time>
      </trkpt>
      <trkpt lat="43.21685" lon="5.71639">
        <ele>168</ele>
        <time>2016-04-18T14:25:32.000Z</time>
      </trkpt>
      <trkpt lat="43.21696" lon="5.71663">
        <ele>169.39999389648</ele>
        <time>2016-04-18T14:25:37.000Z</time>
      </trkpt>
      <trkpt lat="43.21698" lon="5.71667">
        <ele>169.60000610352</ele>
        <time>2016-04-18T14:25:38.000Z</time>
      </trkpt>
      <trkpt lat="43.2171" lon="5.71694">
        <ele>171.19999694824</ele>
        <time>2016-04-18T14:25:45.000Z</time>
      </trkpt>
      <trkpt lat="43.21711" lon="5.71698">
        <ele>171.39999389648</ele>
        <time>2016-04-18T14:25:46.000Z</time>
      </trkpt>
      <trkpt lat="43.21721" lon="5.71723">
        <ele>172.39999389648</ele>
        <time>2016-04-18T14:25:52.000Z</time>
      </trkpt>
      <trkpt lat="43.21727" lon="5.71735">
        <ele>173</ele>
        <time>2016-04-18T14:25:55.000Z</time>
      </trkpt>
      <trkpt lat="43.21744" lon="5.71762">
        <ele>174.60000610352</ele>
        <time>2016-04-18T14:26:02.000Z</time>
      </trkpt>
      <trkpt lat="43.21748" lon="5.71771">
        <ele>175</ele>
        <time>2016-04-18T14:26:04.000Z</time>
      </trkpt>
      <trkpt lat="43.21762" lon="5.71791">
        <ele>176.60000610352</ele>
        <time>2016-04-18T14:26:09.000Z</time>
      </trkpt>
      <trkpt lat="43.21769" lon="5.71797">
        <ele>177</ele>
        <time>2016-04-18T14:26:11.000Z</time>
      </trkpt>
      <trkpt lat="43.21776" lon="5.71803">
        <ele>177.39999389648</ele>
        <time>2016-04-18T14:26:13.000Z</time>
      </trkpt>
      <trkpt lat="43.21786" lon="5.71813">
        <ele>178</ele>
        <time>2016-04-18T14:26:16.000Z</time>
      </trkpt>
      <trkpt lat="43.21795" lon="5.71822">
        <ele>178.80000305176</ele>
        <time>2016-04-18T14:26:19.000Z</time>
      </trkpt>
      <trkpt lat="43.21802" lon="5.71829">
        <ele>179.19999694824</ele>
        <time>2016-04-18T14:26:21.000Z</time>
      </trkpt>
      <trkpt lat="43.21807" lon="5.71836">
        <ele>179.60000610352</ele>
        <time>2016-04-18T14:26:23.000Z</time>
      </trkpt>
      <trkpt lat="43.21819" lon="5.7185">
        <ele>180.39999389648</ele>
        <time>2016-04-18T14:26:27.000Z</time>
      </trkpt>
      <trkpt lat="43.21824" lon="5.71857">
        <ele>180.80000305176</ele>
        <time>2016-04-18T14:26:29.000Z</time>
      </trkpt>
      <trkpt lat="43.21834" lon="5.71871">
        <ele>181.19999694824</ele>
        <time>2016-04-18T14:26:33.000Z</time>
      </trkpt>
      <trkpt lat="43.2184" lon="5.71881">
        <ele>181.60000610352</ele>
        <time>2016-04-18T14:26:36.000Z</time>
      </trkpt>
      <trkpt lat="43.21853" lon="5.71907">
        <ele>182</ele>
        <time>2016-04-18T14:26:44.000Z</time>
      </trkpt>
      <trkpt lat="43.21855" lon="5.7191">
        <ele>182.19999694824</ele>
        <time>2016-04-18T14:26:45.000Z</time>
      </trkpt>
      <trkpt lat="43.21868" lon="5.71932">
        <ele>182.60000610352</ele>
        <time>2016-04-18T14:26:52.000Z</time>
      </trkpt>
      <trkpt lat="43.21877" lon="5.71954">
        <ele>182.60000610352</ele>
        <time>2016-04-18T14:26:57.000Z</time>
      </trkpt>
      <trkpt lat="43.21894" lon="5.71993">
        <ele>184.19999694824</ele>
        <time>2016-04-18T14:27:05.000Z</time>
      </trkpt>
      <trkpt lat="43.21896" lon="5.71998">
        <ele>184.60000610352</ele>
        <time>2016-04-18T14:27:06.000Z</time>
      </trkpt>
      <trkpt lat="43.21915" lon="5.72044">
        <ele>187.39999389648</ele>
        <time>2016-04-18T14:27:15.000Z</time>
      </trkpt>
      <trkpt lat="43.21923" lon="5.72083">
        <ele>188.39999389648</ele>
        <time>2016-04-18T14:27:22.000Z</time>
      </trkpt>
      <trkpt lat="43.21931" lon="5.72111">
        <ele>189</ele>
        <time>2016-04-18T14:27:27.000Z</time>
      </trkpt>
      <trkpt lat="43.21934" lon="5.72116">
        <ele>189.19999694824</ele>
        <time>2016-04-18T14:27:28.000Z</time>
      </trkpt>
      <trkpt lat="43.21937" lon="5.72122">
        <ele>189.19999694824</ele>
        <time>2016-04-18T14:27:29.000Z</time>
      </trkpt>
      <trkpt lat="43.21947" lon="5.72143">
        <ele>189.80000305176</ele>
        <time>2016-04-18T14:27:33.000Z</time>
      </trkpt>
      <trkpt lat="43.21956" lon="5.72164">
        <ele>191.19999694824</ele>
        <time>2016-04-18T14:27:37.000Z</time>
      </trkpt>
      <trkpt lat="43.21962" lon="5.72182">
        <ele>191.80000305176</ele>
        <time>2016-04-18T14:27:40.000Z</time>
      </trkpt>
      <trkpt lat="43.21971" lon="5.7221">
        <ele>192.60000610352</ele>
        <time>2016-04-18T14:27:45.000Z</time>
      </trkpt>
      <trkpt lat="43.21979" lon="5.72233">
        <ele>193.60000610352</ele>
        <time>2016-04-18T14:27:49.000Z</time>
      </trkpt>
      <trkpt lat="43.21981" lon="5.72244">
        <ele>194.19999694824</ele>
        <time>2016-04-18T14:27:51.000Z</time>
      </trkpt>
      <trkpt lat="43.21982" lon="5.72257">
        <ele>194.80000305176</ele>
        <time>2016-04-18T14:27:53.000Z</time>
      </trkpt>
      <trkpt lat="43.21983" lon="5.72268">
        <ele>195.19999694824</ele>
        <time>2016-04-18T14:27:55.000Z</time>
      </trkpt>
      <trkpt lat="43.21982" lon="5.72291">
        <ele>195.39999389648</ele>
        <time>2016-04-18T14:27:59.000Z</time>
      </trkpt>
      <trkpt lat="43.21981" lon="5.72303">
        <ele>195.19999694824</ele>
        <time>2016-04-18T14:28:01.000Z</time>
      </trkpt>
      <trkpt lat="43.2198" lon="5.72309">
        <ele>195.19999694824</ele>
        <time>2016-04-18T14:28:02.000Z</time>
      </trkpt>
      <trkpt lat="43.2198" lon="5.72326">
        <ele>195.19999694824</ele>
        <time>2016-04-18T14:28:05.000Z</time>
      </trkpt>
      <trkpt lat="43.21981" lon="5.72343">
        <ele>195.19999694824</ele>
        <time>2016-04-18T14:28:08.000Z</time>
      </trkpt>
      <trkpt lat="43.21981" lon="5.72349">
        <ele>195.19999694824</ele>
        <time>2016-04-18T14:28:09.000Z</time>
      </trkpt>
      <trkpt lat="43.21982" lon="5.72355">
        <ele>195.39999389648</ele>
        <time>2016-04-18T14:28:10.000Z</time>
      </trkpt>
      <trkpt lat="43.21984" lon="5.72361">
        <ele>195.60000610352</ele>
        <time>2016-04-18T14:28:11.000Z</time>
      </trkpt>
      <trkpt lat="43.2199" lon="5.72383">
        <ele>196.60000610352</ele>
        <time>2016-04-18T14:28:15.000Z</time>
      </trkpt>
      <trkpt lat="43.22015" lon="5.72452">
        <ele>198.39999389648</ele>
        <time>2016-04-18T14:28:28.000Z</time>
      </trkpt>
      <trkpt lat="43.22019" lon="5.72466">
        <ele>198.19999694824</ele>
        <time>2016-04-18T14:28:30.000Z</time>
      </trkpt>
      <trkpt lat="43.22035" lon="5.72507">
        <ele>197.19999694824</ele>
        <time>2016-04-18T14:28:38.000Z</time>
      </trkpt>
      <trkpt lat="43.22049" lon="5.72529">
        <ele>196.60000610352</ele>
        <time>2016-04-18T14:28:44.000Z</time>
      </trkpt>
      <trkpt lat="43.22051" lon="5.72532">
        <ele>196.60000610352</ele>
        <time>2016-04-18T14:28:45.000Z</time>
      </trkpt>
      <trkpt lat="43.2206" lon="5.72549">
        <ele>196.19999694824</ele>
        <time>2016-04-18T14:28:50.000Z</time>
      </trkpt>
      <trkpt lat="43.2207" lon="5.72584">
        <ele>197.19999694824</ele>
        <time>2016-04-18T14:28:56.000Z</time>
      </trkpt>
      <trkpt lat="43.22075" lon="5.72594">
        <ele>197.80000305176</ele>
        <time>2016-04-18T14:28:58.000Z</time>
      </trkpt>
      <trkpt lat="43.22086" lon="5.72613">
        <ele>198.80000305176</ele>
        <time>2016-04-18T14:29:02.000Z</time>
      </trkpt>
      <trkpt lat="43.22094" lon="5.72638">
        <ele>199.80000305176</ele>
        <time>2016-04-18T14:29:07.000Z</time>
      </trkpt>
      <trkpt lat="43.22095" lon="5.72644">
        <ele>199.80000305176</ele>
        <time>2016-04-18T14:29:08.000Z</time>
      </trkpt>
      <trkpt lat="43.22104" lon="5.72687">
        <ele>198.80000305176</ele>
        <time>2016-04-18T14:29:15.000Z</time>
      </trkpt>
      <trkpt lat="43.22105" lon="5.72694">
        <ele>198.80000305176</ele>
        <time>2016-04-18T14:29:16.000Z</time>
      </trkpt>
      <trkpt lat="43.22112" lon="5.72737">
        <ele>198.39999389648</ele>
        <time>2016-04-18T14:29:23.000Z</time>
      </trkpt>
      <trkpt lat="43.22112" lon="5.72745">
        <ele>198.39999389648</ele>
        <time>2016-04-18T14:29:25.000Z</time>
      </trkpt>
      <trkpt lat="43.22112" lon="5.72754">
        <ele>198.39999389648</ele>
        <time>2016-04-18T14:29:28.000Z</time>
      </trkpt>
      <trkpt lat="43.22114" lon="5.7276">
        <ele>198.39999389648</ele>
        <time>2016-04-18T14:29:30.000Z</time>
      </trkpt>
      <trkpt lat="43.22122" lon="5.72769">
        <ele>198.60000610352</ele>
        <time>2016-04-18T14:29:33.000Z</time>
      </trkpt>
      <trkpt lat="43.22145" lon="5.72794">
        <ele>199.19999694824</ele>
        <time>2016-04-18T14:29:40.000Z</time>
      </trkpt>
      <trkpt lat="43.22156" lon="5.72819">
        <ele>200.80000305176</ele>
        <time>2016-04-18T14:29:46.000Z</time>
      </trkpt>
      <trkpt lat="43.22154" lon="5.72824">
        <ele>201.19999694824</ele>
        <time>2016-04-18T14:29:47.000Z</time>
      </trkpt>
      <trkpt lat="43.2215" lon="5.72839">
        <ele>202.39999389648</ele>
        <time>2016-04-18T14:29:50.000Z</time>
      </trkpt>
      <trkpt lat="43.22143" lon="5.72871">
        <ele>205.39999389648</ele>
        <time>2016-04-18T14:29:56.000Z</time>
      </trkpt>
      <trkpt lat="43.22142" lon="5.72887">
        <ele>207.39999389648</ele>
        <time>2016-04-18T14:29:59.000Z</time>
      </trkpt>
      <trkpt lat="43.22142" lon="5.72893">
        <ele>207.60000610352</ele>
        <time>2016-04-18T14:30:00.000Z</time>
      </trkpt>
      <trkpt lat="43.22143" lon="5.72898">
        <ele>207.80000305176</ele>
        <time>2016-04-18T14:30:01.000Z</time>
      </trkpt>
      <trkpt lat="43.22146" lon="5.72915">
        <ele>208.39999389648</ele>
        <time>2016-04-18T14:30:04.000Z</time>
      </trkpt>
      <trkpt lat="43.22147" lon="5.7292">
        <ele>208.60000610352</ele>
        <time>2016-04-18T14:30:05.000Z</time>
      </trkpt>
      <trkpt lat="43.2215" lon="5.72936">
        <ele>209.19999694824</ele>
        <time>2016-04-18T14:30:08.000Z</time>
      </trkpt>
      <trkpt lat="43.22151" lon="5.72947">
        <ele>210</ele>
        <time>2016-04-18T14:30:10.000Z</time>
      </trkpt>
      <trkpt lat="43.22153" lon="5.72958">
        <ele>211.39999389648</ele>
        <time>2016-04-18T14:30:12.000Z</time>
      </trkpt>
      <trkpt lat="43.22155" lon="5.72973">
        <ele>213.19999694824</ele>
        <time>2016-04-18T14:30:15.000Z</time>
      </trkpt>
      <trkpt lat="43.22153" lon="5.72989">
        <ele>214.39999389648</ele>
        <time>2016-04-18T14:30:18.000Z</time>
      </trkpt>
      <trkpt lat="43.22146" lon="5.73008">
        <ele>216.60000610352</ele>
        <time>2016-04-18T14:30:22.000Z</time>
      </trkpt>
      <trkpt lat="43.22145" lon="5.73013">
        <ele>217</ele>
        <time>2016-04-18T14:30:23.000Z</time>
      </trkpt>
      <trkpt lat="43.22143" lon="5.73024">
        <ele>218</ele>
        <time>2016-04-18T14:30:25.000Z</time>
      </trkpt>
      <trkpt lat="43.22139" lon="5.73045">
        <ele>219.60000610352</ele>
        <time>2016-04-18T14:30:29.000Z</time>
      </trkpt>
      <trkpt lat="43.22134" lon="5.7306">
        <ele>221.60000610352</ele>
        <time>2016-04-18T14:30:32.000Z</time>
      </trkpt>
      <trkpt lat="43.22129" lon="5.73068">
        <ele>223.39999389648</ele>
        <time>2016-04-18T14:30:34.000Z</time>
      </trkpt>
      <trkpt lat="43.22119" lon="5.73078">
        <ele>226.19999694824</ele>
        <time>2016-04-18T14:30:37.000Z</time>
      </trkpt>
      <trkpt lat="43.22116" lon="5.7308">
        <ele>226.39999389648</ele>
        <time>2016-04-18T14:30:38.000Z</time>
      </trkpt>
      <trkpt lat="43.22105" lon="5.73088">
        <ele>226.39999389648</ele>
        <time>2016-04-18T14:30:41.000Z</time>
      </trkpt>
      <trkpt lat="43.22091" lon="5.731">
        <ele>226</ele>
        <time>2016-04-18T14:30:45.000Z</time>
      </trkpt>
      <trkpt lat="43.22087" lon="5.73102">
        <ele>225.60000610352</ele>
        <time>2016-04-18T14:30:46.000Z</time>
      </trkpt>
      <trkpt lat="43.2208" lon="5.73107">
        <ele>224.80000305176</ele>
        <time>2016-04-18T14:30:48.000Z</time>
      </trkpt>
      <trkpt lat="43.22068" lon="5.73114">
        <ele>223.60000610352</ele>
        <time>2016-04-18T14:30:51.000Z</time>
      </trkpt>
      <trkpt lat="43.22058" lon="5.73118">
        <ele>223.39999389648</ele>
        <time>2016-04-18T14:30:54.000Z</time>
      </trkpt>
      <trkpt lat="43.22054" lon="5.7312">
        <ele>223.19999694824</ele>
        <time>2016-04-18T14:30:55.000Z</time>
      </trkpt>
      <trkpt lat="43.22048" lon="5.73123">
        <ele>223.19999694824</ele>
        <time>2016-04-18T14:30:57.000Z</time>
      </trkpt>
      <trkpt lat="43.22037" lon="5.73126">
        <ele>222.60000610352</ele>
        <time>2016-04-18T14:31:00.000Z</time>
      </trkpt>
      <trkpt lat="43.22006" lon="5.73138">
        <ele>221</ele>
        <time>2016-04-18T14:31:07.000Z</time>
      </trkpt>
      <trkpt lat="43.21996" lon="5.73149">
        <ele>219.19999694824</ele>
        <time>2016-04-18T14:31:12.000Z</time>
      </trkpt>
      <trkpt lat="43.21993" lon="5.73154">
        <ele>218.80000305176</ele>
        <time>2016-04-18T14:31:14.000Z</time>
      </trkpt>
      <trkpt lat="43.21991" lon="5.73159">
        <ele>218.60000610352</ele>
        <time>2016-04-18T14:34:29.000Z</time>
      </trkpt>
      <trkpt lat="43.21989" lon="5.73165">
        <ele>218.19999694824</ele>
        <time>2016-04-18T14:34:31.000Z</time>
      </trkpt>
      <trkpt lat="43.21975" lon="5.73184">
        <ele>216.19999694824</ele>
        <time>2016-04-18T14:34:36.000Z</time>
      </trkpt>
      <trkpt lat="43.21968" lon="5.73193">
        <ele>216.60000610352</ele>
        <time>2016-04-18T14:34:40.000Z</time>
      </trkpt>
      <trkpt lat="43.21966" lon="5.73194">
        <ele>216.80000305176</ele>
        <time>2016-04-18T14:35:22.000Z</time>
      </trkpt>
      <trkpt lat="43.21963" lon="5.73197">
        <ele>216.80000305176</ele>
        <time>2016-04-18T14:35:24.000Z</time>
      </trkpt>
      <trkpt lat="43.21945" lon="5.7321">
        <ele>217</ele>
        <time>2016-04-18T14:35:30.000Z</time>
      </trkpt>
      <trkpt lat="43.21925" lon="5.73224">
        <ele>216.60000610352</ele>
        <time>2016-04-18T14:35:37.000Z</time>
      </trkpt>
      <trkpt lat="43.21919" lon="5.73231">
        <ele>216</ele>
        <time>2016-04-18T14:36:16.000Z</time>
      </trkpt>
      <trkpt lat="43.21915" lon="5.73234">
        <ele>215.60000610352</ele>
        <time>2016-04-18T14:36:18.000Z</time>
      </trkpt>
      <trkpt lat="43.21901" lon="5.73257">
        <ele>213.80000305176</ele>
        <time>2016-04-18T14:36:24.000Z</time>
      </trkpt>
      <trkpt lat="43.21889" lon="5.73279">
        <ele>212.19999694824</ele>
        <time>2016-04-18T14:36:28.000Z</time>
      </trkpt>
      <trkpt lat="43.21885" lon="5.73283">
        <ele>211.60000610352</ele>
        <time>2016-04-18T14:36:29.000Z</time>
      </trkpt>
      <trkpt lat="43.21869" lon="5.73291">
        <ele>209.80000305176</ele>
        <time>2016-04-18T14:36:33.000Z</time>
      </trkpt>
      <trkpt lat="43.21867" lon="5.73292">
        <ele>209.39999389648</ele>
        <time>2016-04-18T14:36:34.000Z</time>
      </trkpt>
      <trkpt lat="43.21863" lon="5.73293">
        <ele>209.19999694824</ele>
        <time>2016-04-18T14:36:36.000Z</time>
      </trkpt>
      <trkpt lat="43.21862" lon="5.73294">
        <ele>209</ele>
        <time>2016-04-18T14:37:24.000Z</time>
      </trkpt>
      <trkpt lat="43.21858" lon="5.73297">
        <ele>208.39999389648</ele>
        <time>2016-04-18T14:37:26.000Z</time>
      </trkpt>
      <trkpt lat="43.21844" lon="5.73303">
        <ele>206.80000305176</ele>
        <time>2016-04-18T14:37:29.000Z</time>
      </trkpt>
      <trkpt lat="43.21823" lon="5.73316">
        <ele>204</ele>
        <time>2016-04-18T14:37:32.000Z</time>
      </trkpt>
      <trkpt lat="43.21817" lon="5.73322">
        <ele>202.80000305176</ele>
        <time>2016-04-18T14:37:33.000Z</time>
      </trkpt>
      <trkpt lat="43.21811" lon="5.73328">
        <ele>201.80000305176</ele>
        <time>2016-04-18T14:37:34.000Z</time>
      </trkpt>
      <trkpt lat="43.21798" lon="5.73339">
        <ele>199.80000305176</ele>
        <time>2016-04-18T14:37:36.000Z</time>
      </trkpt>
      <trkpt lat="43.21785" lon="5.73348">
        <ele>198</ele>
        <time>2016-04-18T14:37:38.000Z</time>
      </trkpt>
      <trkpt lat="43.2177" lon="5.73355">
        <ele>196.39999389648</ele>
        <time>2016-04-18T14:37:40.000Z</time>
      </trkpt>
      <trkpt lat="43.21754" lon="5.73361">
        <ele>194.19999694824</ele>
        <time>2016-04-18T14:37:42.000Z</time>
      </trkpt>
      <trkpt lat="43.21746" lon="5.73366">
        <ele>192.80000305176</ele>
        <time>2016-04-18T14:37:43.000Z</time>
      </trkpt>
      <trkpt lat="43.21738" lon="5.73373">
        <ele>192</ele>
        <time>2016-04-18T14:37:44.000Z</time>
      </trkpt>
      <trkpt lat="43.2173" lon="5.73381">
        <ele>191.39999389648</ele>
        <time>2016-04-18T14:37:45.000Z</time>
      </trkpt>
      <trkpt lat="43.21723" lon="5.73391">
        <ele>190.60000610352</ele>
        <time>2016-04-18T14:37:46.000Z</time>
      </trkpt>
      <trkpt lat="43.21708" lon="5.73411">
        <ele>188.60000610352</ele>
        <time>2016-04-18T14:37:48.000Z</time>
      </trkpt>
      <trkpt lat="43.217" lon="5.7342">
        <ele>188.19999694824</ele>
        <time>2016-04-18T14:37:49.000Z</time>
      </trkpt>
      <trkpt lat="43.21693" lon="5.7343">
        <ele>188</ele>
        <time>2016-04-18T14:37:50.000Z</time>
      </trkpt>
      <trkpt lat="43.21686" lon="5.73439">
        <ele>187.80000305176</ele>
        <time>2016-04-18T14:37:51.000Z</time>
      </trkpt>
      <trkpt lat="43.21678" lon="5.73448">
        <ele>187.80000305176</ele>
        <time>2016-04-18T14:37:52.000Z</time>
      </trkpt>
      <trkpt lat="43.21671" lon="5.73457">
        <ele>187</ele>
        <time>2016-04-18T14:37:53.000Z</time>
      </trkpt>
      <trkpt lat="43.21664" lon="5.73465">
        <ele>186.80000305176</ele>
        <time>2016-04-18T14:37:54.000Z</time>
      </trkpt>
      <trkpt lat="43.21657" lon="5.73473">
        <ele>186.60000610352</ele>
        <time>2016-04-18T14:37:55.000Z</time>
      </trkpt>
      <trkpt lat="43.21644" lon="5.73489">
        <ele>184.80000305176</ele>
        <time>2016-04-18T14:37:57.000Z</time>
      </trkpt>
      <trkpt lat="43.21638" lon="5.73497">
        <ele>184</ele>
        <time>2016-04-18T14:37:58.000Z</time>
      </trkpt>
      <trkpt lat="43.21628" lon="5.73511">
        <ele>183.19999694824</ele>
        <time>2016-04-18T14:38:00.000Z</time>
      </trkpt>
      <trkpt lat="43.21619" lon="5.73521">
        <ele>183.60000610352</ele>
        <time>2016-04-18T14:38:02.000Z</time>
      </trkpt>
      <trkpt lat="43.21605" lon="5.7353">
        <ele>184.19999694824</ele>
        <time>2016-04-18T14:38:06.000Z</time>
      </trkpt>
      <trkpt lat="43.21584" lon="5.73543">
        <ele>183.80000305176</ele>
        <time>2016-04-18T14:38:12.000Z</time>
      </trkpt>
      <trkpt lat="43.21572" lon="5.73553">
        <ele>186</ele>
        <time>2016-04-18T14:38:16.000Z</time>
      </trkpt>
      <trkpt lat="43.21563" lon="5.73559">
        <ele>186</ele>
        <time>2016-04-18T14:38:19.000Z</time>
      </trkpt>
      <trkpt lat="43.21552" lon="5.73565">
        <ele>186</ele>
        <time>2016-04-18T14:38:22.000Z</time>
      </trkpt>
      <trkpt lat="43.21537" lon="5.73571">
        <ele>186.19999694824</ele>
        <time>2016-04-18T14:38:26.000Z</time>
      </trkpt>
      <trkpt lat="43.21533" lon="5.73572">
        <ele>186.39999389648</ele>
        <time>2016-04-18T14:38:27.000Z</time>
      </trkpt>
      <trkpt lat="43.21514" lon="5.73573">
        <ele>188.19999694824</ele>
        <time>2016-04-18T14:38:31.000Z</time>
      </trkpt>
      <trkpt lat="43.21492" lon="5.73577">
        <ele>187.80000305176</ele>
        <time>2016-04-18T14:38:36.000Z</time>
      </trkpt>
      <trkpt lat="43.21456" lon="5.73581">
        <ele>186.39999389648</ele>
        <time>2016-04-18T14:38:44.000Z</time>
      </trkpt>
      <trkpt lat="43.21429" lon="5.73588">
        <ele>188.39999389648</ele>
        <time>2016-04-18T14:38:51.000Z</time>
      </trkpt>
      <trkpt lat="43.2141" lon="5.73607">
        <ele>188.80000305176</ele>
        <time>2016-04-18T14:38:57.000Z</time>
      </trkpt>
      <trkpt lat="43.21397" lon="5.73624">
        <ele>189.39999389648</ele>
        <time>2016-04-18T14:39:01.000Z</time>
      </trkpt>
      <trkpt lat="43.21387" lon="5.73637">
        <ele>190</ele>
        <time>2016-04-18T14:39:04.000Z</time>
      </trkpt>
      <trkpt lat="43.21364" lon="5.73669">
        <ele>185.80000305176</ele>
        <time>2016-04-18T14:39:10.000Z</time>
      </trkpt>
      <trkpt lat="43.21341" lon="5.73697">
        <ele>185.39999389648</ele>
        <time>2016-04-18T14:39:15.000Z</time>
      </trkpt>
      <trkpt lat="43.21331" lon="5.73709">
        <ele>184.19999694824</ele>
        <time>2016-04-18T14:39:17.000Z</time>
      </trkpt>
      <trkpt lat="43.21322" lon="5.7372">
        <ele>183.39999389648</ele>
        <time>2016-04-18T14:39:19.000Z</time>
      </trkpt>
      <trkpt lat="43.21308" lon="5.73738">
        <ele>179.60000610352</ele>
        <time>2016-04-18T14:39:22.000Z</time>
      </trkpt>
      <trkpt lat="43.21304" lon="5.73743">
        <ele>178.39999389648</ele>
        <time>2016-04-18T14:39:23.000Z</time>
      </trkpt>
      <trkpt lat="43.21295" lon="5.73753">
        <ele>176.19999694824</ele>
        <time>2016-04-18T14:39:25.000Z</time>
      </trkpt>
      <trkpt lat="43.2128" lon="5.7377">
        <ele>176</ele>
        <time>2016-04-18T14:39:28.000Z</time>
      </trkpt>
      <trkpt lat="43.21274" lon="5.73776">
        <ele>175.80000305176</ele>
        <time>2016-04-18T14:39:29.000Z</time>
      </trkpt>
      <trkpt lat="43.21264" lon="5.73789">
        <ele>175.60000610352</ele>
        <time>2016-04-18T14:39:31.000Z</time>
      </trkpt>
      <trkpt lat="43.21249" lon="5.73808">
        <ele>173.80000305176</ele>
        <time>2016-04-18T14:39:34.000Z</time>
      </trkpt>
      <trkpt lat="43.21238" lon="5.73822">
        <ele>171.19999694824</ele>
        <time>2016-04-18T14:39:36.000Z</time>
      </trkpt>
      <trkpt lat="43.21232" lon="5.73829">
        <ele>169.80000305176</ele>
        <time>2016-04-18T14:39:37.000Z</time>
      </trkpt>
      <trkpt lat="43.21226" lon="5.73836">
        <ele>168.60000610352</ele>
        <time>2016-04-18T14:39:38.000Z</time>
      </trkpt>
      <trkpt lat="43.21214" lon="5.73849">
        <ele>167</ele>
        <time>2016-04-18T14:39:40.000Z</time>
      </trkpt>
      <trkpt lat="43.21203" lon="5.73859">
        <ele>167.19999694824</ele>
        <time>2016-04-18T14:39:42.000Z</time>
      </trkpt>
      <trkpt lat="43.21194" lon="5.73866">
        <ele>167.19999694824</ele>
        <time>2016-04-18T14:39:44.000Z</time>
      </trkpt>
      <trkpt lat="43.21189" lon="5.73874">
        <ele>167.19999694824</ele>
        <time>2016-04-18T14:39:46.000Z</time>
      </trkpt>
      <trkpt lat="43.21187" lon="5.73888">
        <ele>166.60000610352</ele>
        <time>2016-04-18T14:39:49.000Z</time>
      </trkpt>
      <trkpt lat="43.21185" lon="5.73892">
        <ele>166.19999694824</ele>
        <time>2016-04-18T14:39:50.000Z</time>
      </trkpt>
      <trkpt lat="43.21177" lon="5.739">
        <ele>165.39999389648</ele>
        <time>2016-04-18T14:39:52.000Z</time>
      </trkpt>
      <trkpt lat="43.21172" lon="5.73904">
        <ele>164.39999389648</ele>
        <time>2016-04-18T14:39:53.000Z</time>
      </trkpt>
      <trkpt lat="43.21153" lon="5.73917">
        <ele>160.60000610352</ele>
        <time>2016-04-18T14:39:56.000Z</time>
      </trkpt>
      <trkpt lat="43.2114" lon="5.73928">
        <ele>158</ele>
        <time>2016-04-18T14:39:58.000Z</time>
      </trkpt>
      <trkpt lat="43.21134" lon="5.73933">
        <ele>157.39999389648</ele>
        <time>2016-04-18T14:39:59.000Z</time>
      </trkpt>
      <trkpt lat="43.21123" lon="5.73944">
        <ele>157.39999389648</ele>
        <time>2016-04-18T14:40:01.000Z</time>
      </trkpt>
      <trkpt lat="43.21113" lon="5.73953">
        <ele>157.19999694824</ele>
        <time>2016-04-18T14:40:03.000Z</time>
      </trkpt>
      <trkpt lat="43.21105" lon="5.73961">
        <ele>157.19999694824</ele>
        <time>2016-04-18T14:40:05.000Z</time>
      </trkpt>
      <trkpt lat="43.21097" lon="5.7397">
        <ele>157</ele>
        <time>2016-04-18T14:40:07.000Z</time>
      </trkpt>
      <trkpt lat="43.2109" lon="5.73978">
        <ele>155.60000610352</ele>
        <time>2016-04-18T14:40:09.000Z</time>
      </trkpt>
      <trkpt lat="43.21086" lon="5.73982">
        <ele>154.80000305176</ele>
        <time>2016-04-18T14:40:10.000Z</time>
      </trkpt>
      <trkpt lat="43.21077" lon="5.73994">
        <ele>152.39999389648</ele>
        <time>2016-04-18T14:40:13.000Z</time>
      </trkpt>
      <trkpt lat="43.21075" lon="5.73998">
        <ele>151.60000610352</ele>
        <time>2016-04-18T14:40:14.000Z</time>
      </trkpt>
      <trkpt lat="43.21068" lon="5.74007">
        <ele>149.80000305176</ele>
        <time>2016-04-18T14:40:16.000Z</time>
      </trkpt>
      <trkpt lat="43.21056" lon="5.74021">
        <ele>147.60000610352</ele>
        <time>2016-04-18T14:40:19.000Z</time>
      </trkpt>
      <trkpt lat="43.21047" lon="5.74036">
        <ele>146.80000305176</ele>
        <time>2016-04-18T14:40:22.000Z</time>
      </trkpt>
      <trkpt lat="43.21041" lon="5.74048">
        <ele>146.39999389648</ele>
        <time>2016-04-18T14:40:24.000Z</time>
      </trkpt>
      <trkpt lat="43.21036" lon="5.7406">
        <ele>145.39999389648</ele>
        <time>2016-04-18T14:40:26.000Z</time>
      </trkpt>
      <trkpt lat="43.21032" lon="5.74072">
        <ele>143.60000610352</ele>
        <time>2016-04-18T14:40:28.000Z</time>
      </trkpt>
      <trkpt lat="43.21027" lon="5.74082">
        <ele>142.80000305176</ele>
        <time>2016-04-18T14:40:30.000Z</time>
      </trkpt>
      <trkpt lat="43.21021" lon="5.7409">
        <ele>142.19999694824</ele>
        <time>2016-04-18T14:40:32.000Z</time>
      </trkpt>
      <trkpt lat="43.21013" lon="5.74098">
        <ele>141.80000305176</ele>
        <time>2016-04-18T14:40:34.000Z</time>
      </trkpt>
      <trkpt lat="43.2101" lon="5.74103">
        <ele>141.19999694824</ele>
        <time>2016-04-18T14:40:35.000Z</time>
      </trkpt>
      <trkpt lat="43.21006" lon="5.74107">
        <ele>140.39999389648</ele>
        <time>2016-04-18T14:40:36.000Z</time>
      </trkpt>
      <trkpt lat="43.21001" lon="5.74112">
        <ele>139.60000610352</ele>
        <time>2016-04-18T14:40:37.000Z</time>
      </trkpt>
      <trkpt lat="43.20992" lon="5.7412">
        <ele>138</ele>
        <time>2016-04-18T14:40:39.000Z</time>
      </trkpt>
      <trkpt lat="43.20985" lon="5.74128">
        <ele>137</ele>
        <time>2016-04-18T14:40:41.000Z</time>
      </trkpt>
      <trkpt lat="43.20981" lon="5.74131">
        <ele>136.60000610352</ele>
        <time>2016-04-18T14:40:42.000Z</time>
      </trkpt>
      <trkpt lat="43.20978" lon="5.74134">
        <ele>136.19999694824</ele>
        <time>2016-04-18T14:40:43.000Z</time>
      </trkpt>
      <trkpt lat="43.20972" lon="5.7414">
        <ele>135.39999389648</ele>
        <time>2016-04-18T14:40:45.000Z</time>
      </trkpt>
      <trkpt lat="43.20968" lon="5.74146">
        <ele>134.39999389648</ele>
        <time>2016-04-18T14:40:47.000Z</time>
      </trkpt>
      <trkpt lat="43.20965" lon="5.74152">
        <ele>133.19999694824</ele>
        <time>2016-04-18T14:40:49.000Z</time>
      </trkpt>
      <trkpt lat="43.20963" lon="5.74165">
        <ele>131.60000610352</ele>
        <time>2016-04-18T14:40:52.000Z</time>
      </trkpt>
      <trkpt lat="43.20963" lon="5.7417">
        <ele>131</ele>
        <time>2016-04-18T14:40:53.000Z</time>
      </trkpt>
      <trkpt lat="43.20967" lon="5.74193">
        <ele>129.80000305176</ele>
        <time>2016-04-18T14:40:58.000Z</time>
      </trkpt>
      <trkpt lat="43.20969" lon="5.74196">
        <ele>129.60000610352</ele>
        <time>2016-04-18T14:40:59.000Z</time>
      </trkpt>
      <trkpt lat="43.20978" lon="5.74207">
        <ele>129.19999694824</ele>
        <time>2016-04-18T14:41:02.000Z</time>
      </trkpt>
      <trkpt lat="43.20981" lon="5.74214">
        <ele>129</ele>
        <time>2016-04-18T14:41:04.000Z</time>
      </trkpt>
      <trkpt lat="43.20981" lon="5.74217">
        <ele>128.80000305176</ele>
        <time>2016-04-18T14:41:05.000Z</time>
      </trkpt>
      <trkpt lat="43.20982" lon="5.7422">
        <ele>128.60000610352</ele>
        <time>2016-04-18T14:41:07.000Z</time>
      </trkpt>
      <trkpt lat="43.20982" lon="5.74222">
        <ele>128.39999389648</ele>
        <time>2016-04-18T14:41:09.000Z</time>
      </trkpt>
      <trkpt lat="43.20981" lon="5.74224">
        <ele>128.19999694824</ele>
        <time>2016-04-18T14:41:10.000Z</time>
      </trkpt>
      <trkpt lat="43.20978" lon="5.74228">
        <ele>127.80000305176</ele>
        <time>2016-04-18T14:41:12.000Z</time>
      </trkpt>
      <trkpt lat="43.20976" lon="5.7423">
        <ele>127.59999847412</ele>
        <time>2016-04-18T14:41:13.000Z</time>
      </trkpt>
      <trkpt lat="43.20971" lon="5.74235">
        <ele>127</ele>
        <time>2016-04-18T14:41:16.000Z</time>
      </trkpt>
      <trkpt lat="43.20962" lon="5.74243">
        <ele>126</ele>
        <time>2016-04-18T14:41:20.000Z</time>
      </trkpt>
      <trkpt lat="43.20958" lon="5.74246">
        <ele>125.59999847412</ele>
        <time>2016-04-18T14:41:21.000Z</time>
      </trkpt>
      <trkpt lat="43.20949" lon="5.74251">
        <ele>125</ele>
        <time>2016-04-18T14:41:24.000Z</time>
      </trkpt>
      <trkpt lat="43.2094" lon="5.74255">
        <ele>124.80000305176</ele>
        <time>2016-04-18T14:41:27.000Z</time>
      </trkpt>
      <trkpt lat="43.20933" lon="5.74255">
        <ele>124.59999847412</ele>
        <time>2016-04-18T14:41:29.000Z</time>
      </trkpt>
      <trkpt lat="43.20921" lon="5.74259">
        <ele>123.80000305176</ele>
        <time>2016-04-18T14:41:32.000Z</time>
      </trkpt>
      <trkpt lat="43.20886" lon="5.74271">
        <ele>120</ele>
        <time>2016-04-18T14:41:39.000Z</time>
      </trkpt>
      <trkpt lat="43.20881" lon="5.74273">
        <ele>119.59999847412</ele>
        <time>2016-04-18T14:41:40.000Z</time>
      </trkpt>
      <trkpt lat="43.2086" lon="5.74281">
        <ele>118</ele>
        <time>2016-04-18T14:41:44.000Z</time>
      </trkpt>
      <trkpt lat="43.20846" lon="5.74286">
        <ele>117</ele>
        <time>2016-04-18T14:41:47.000Z</time>
      </trkpt>
      <trkpt lat="43.20837" lon="5.74291">
        <ele>116</ele>
        <time>2016-04-18T14:41:49.000Z</time>
      </trkpt>
      <trkpt lat="43.20829" lon="5.74296">
        <ele>115</ele>
        <time>2016-04-18T14:41:51.000Z</time>
      </trkpt>
      <trkpt lat="43.20822" lon="5.74303">
        <ele>114.40000152588</ele>
        <time>2016-04-18T14:41:53.000Z</time>
      </trkpt>
      <trkpt lat="43.20818" lon="5.74307">
        <ele>113.80000305176</ele>
        <time>2016-04-18T14:41:54.000Z</time>
      </trkpt>
      <trkpt lat="43.20814" lon="5.74312">
        <ele>113.40000152588</ele>
        <time>2016-04-18T14:41:55.000Z</time>
      </trkpt>
      <trkpt lat="43.20807" lon="5.74321">
        <ele>112.19999694824</ele>
        <time>2016-04-18T14:41:57.000Z</time>
      </trkpt>
      <trkpt lat="43.20798" lon="5.74329">
        <ele>111.19999694824</ele>
        <time>2016-04-18T14:41:59.000Z</time>
      </trkpt>
      <trkpt lat="43.20789" lon="5.74336">
        <ele>110.19999694824</ele>
        <time>2016-04-18T14:42:01.000Z</time>
      </trkpt>
      <trkpt lat="43.2078" lon="5.74344">
        <ele>109.40000152588</ele>
        <time>2016-04-18T14:42:03.000Z</time>
      </trkpt>
      <trkpt lat="43.20773" lon="5.74352">
        <ele>108.80000305176</ele>
        <time>2016-04-18T14:42:05.000Z</time>
      </trkpt>
      <trkpt lat="43.20766" lon="5.74359">
        <ele>108.19999694824</ele>
        <time>2016-04-18T14:42:07.000Z</time>
      </trkpt>
      <trkpt lat="43.20763" lon="5.74362">
        <ele>108</ele>
        <time>2016-04-18T14:42:08.000Z</time>
      </trkpt>
      <trkpt lat="43.2076" lon="5.74365">
        <ele>107.59999847412</ele>
        <time>2016-04-18T14:42:09.000Z</time>
      </trkpt>
      <trkpt lat="43.20756" lon="5.74368">
        <ele>107</ele>
        <time>2016-04-18T14:42:11.000Z</time>
      </trkpt>
      <trkpt lat="43.20753" lon="5.7437">
        <ele>106.59999847412</ele>
        <time>2016-04-18T14:42:13.000Z</time>
      </trkpt>
      <trkpt lat="43.2075" lon="5.74373">
        <ele>106</ele>
        <time>2016-04-18T14:42:21.000Z</time>
      </trkpt>
      <trkpt lat="43.2075" lon="5.74377">
        <ele>106</ele>
        <time>2016-04-18T14:42:22.000Z</time>
      </trkpt>
      <trkpt lat="43.20758" lon="5.74391">
        <ele>106.59999847412</ele>
        <time>2016-04-18T14:42:26.000Z</time>
      </trkpt>
      <trkpt lat="43.2078" lon="5.74423">
        <ele>107.19999694824</ele>
        <time>2016-04-18T14:42:34.000Z</time>
      </trkpt>
      <trkpt lat="43.2081" lon="5.74456">
        <ele>107.59999847412</ele>
        <time>2016-04-18T14:42:43.000Z</time>
      </trkpt>
      <trkpt lat="43.20822" lon="5.74461">
        <ele>107.80000305176</ele>
        <time>2016-04-18T14:42:46.000Z</time>
      </trkpt>
      <trkpt lat="43.20836" lon="5.74464">
        <ele>107.80000305176</ele>
        <time>2016-04-18T14:42:49.000Z</time>
      </trkpt>
      <trkpt lat="43.20846" lon="5.74464">
        <ele>108.19999694824</ele>
        <time>2016-04-18T14:42:51.000Z</time>
      </trkpt>
      <trkpt lat="43.20875" lon="5.74462">
        <ele>108.59999847412</ele>
        <time>2016-04-18T14:42:57.000Z</time>
      </trkpt>
      <trkpt lat="43.20899" lon="5.74462">
        <ele>109</ele>
        <time>2016-04-18T14:43:02.000Z</time>
      </trkpt>
      <trkpt lat="43.20908" lon="5.74465">
        <ele>109</ele>
        <time>2016-04-18T14:43:04.000Z</time>
      </trkpt>
      <trkpt lat="43.20912" lon="5.74467">
        <ele>109</ele>
        <time>2016-04-18T14:43:05.000Z</time>
      </trkpt>
      <trkpt lat="43.20927" lon="5.74483">
        <ele>109</ele>
        <time>2016-04-18T14:43:09.000Z</time>
      </trkpt>
      <trkpt lat="43.2094" lon="5.74511">
        <ele>109.80000305176</ele>
        <time>2016-04-18T14:43:14.000Z</time>
      </trkpt>
      <trkpt lat="43.20941" lon="5.74517">
        <ele>110</ele>
        <time>2016-04-18T14:43:15.000Z</time>
      </trkpt>
      <trkpt lat="43.20947" lon="5.74562">
        <ele>110.59999847412</ele>
        <time>2016-04-18T14:43:22.000Z</time>
      </trkpt>
      <trkpt lat="43.20946" lon="5.74634">
        <ele>110.19999694824</ele>
        <time>2016-04-18T14:43:33.000Z</time>
      </trkpt>
      <trkpt lat="43.20944" lon="5.74666">
        <ele>110.40000152588</ele>
        <time>2016-04-18T14:43:38.000Z</time>
      </trkpt>
      <trkpt lat="43.20941" lon="5.74678">
        <ele>110.40000152588</ele>
        <time>2016-04-18T14:43:40.000Z</time>
      </trkpt>
      <trkpt lat="43.20936" lon="5.74716">
        <ele>110.80000305176</ele>
        <time>2016-04-18T14:43:46.000Z</time>
      </trkpt>
      <trkpt lat="43.20937" lon="5.74723">
        <ele>111</ele>
        <time>2016-04-18T14:43:47.000Z</time>
      </trkpt>
      <trkpt lat="43.20946" lon="5.74767">
        <ele>111.59999847412</ele>
        <time>2016-04-18T14:43:54.000Z</time>
      </trkpt>
      <trkpt lat="43.2095" lon="5.74778">
        <ele>112</ele>
        <time>2016-04-18T14:43:56.000Z</time>
      </trkpt>
      <trkpt lat="43.20963" lon="5.74806">
        <ele>113.19999694824</ele>
        <time>2016-04-18T14:44:01.000Z</time>
      </trkpt>
      <trkpt lat="43.20968" lon="5.74825">
        <ele>114.59999847412</ele>
        <time>2016-04-18T14:44:04.000Z</time>
      </trkpt>
      <trkpt lat="43.2097" lon="5.74838">
        <ele>115.19999694824</ele>
        <time>2016-04-18T14:44:06.000Z</time>
      </trkpt>
      <trkpt lat="43.20968" lon="5.74857">
        <ele>115.19999694824</ele>
        <time>2016-04-18T14:44:09.000Z</time>
      </trkpt>
      <trkpt lat="43.20964" lon="5.74876">
        <ele>114.59999847412</ele>
        <time>2016-04-18T14:44:12.000Z</time>
      </trkpt>
      <trkpt lat="43.20957" lon="5.749">
        <ele>114.19999694824</ele>
        <time>2016-04-18T14:44:16.000Z</time>
      </trkpt>
      <trkpt lat="43.20949" lon="5.74922">
        <ele>114.59999847412</ele>
        <time>2016-04-18T14:44:20.000Z</time>
      </trkpt>
      <trkpt lat="43.20946" lon="5.74933">
        <ele>114.80000305176</ele>
        <time>2016-04-18T14:44:22.000Z</time>
      </trkpt>
      <trkpt lat="43.20931" lon="5.74979">
        <ele>115.59999847412</ele>
        <time>2016-04-18T14:44:30.000Z</time>
      </trkpt>
      <trkpt lat="43.20928" lon="5.7501">
        <ele>116.40000152588</ele>
        <time>2016-04-18T14:44:36.000Z</time>
      </trkpt>
      <trkpt lat="43.20929" lon="5.75032">
        <ele>117.19999694824</ele>
        <time>2016-04-18T14:44:40.000Z</time>
      </trkpt>
      <trkpt lat="43.20929" lon="5.75042">
        <ele>117.59999847412</ele>
        <time>2016-04-18T14:44:42.000Z</time>
      </trkpt>
      <trkpt lat="43.2093" lon="5.75046">
        <ele>117.80000305176</ele>
        <time>2016-04-18T14:44:43.000Z</time>
      </trkpt>
      <trkpt lat="43.20937" lon="5.75051">
        <ele>118.80000305176</ele>
        <time>2016-04-18T14:44:45.000Z</time>
      </trkpt>
      <trkpt lat="43.20941" lon="5.75051">
        <ele>119.19999694824</ele>
        <time>2016-04-18T14:44:46.000Z</time>
      </trkpt>
      <trkpt lat="43.20944" lon="5.75051">
        <ele>119.59999847412</ele>
        <time>2016-04-18T14:44:47.000Z</time>
      </trkpt>
      <trkpt lat="43.20951" lon="5.75049">
        <ele>120.19999694824</ele>
        <time>2016-04-18T14:44:49.000Z</time>
      </trkpt>
      <trkpt lat="43.20954" lon="5.75048">
        <ele>120.59999847412</ele>
        <time>2016-04-18T14:44:50.000Z</time>
      </trkpt>
      <trkpt lat="43.2096" lon="5.75044">
        <ele>121</ele>
        <time>2016-04-18T14:44:52.000Z</time>
      </trkpt>
      <trkpt lat="43.20969" lon="5.75036">
        <ele>121.59999847412</ele>
        <time>2016-04-18T14:44:55.000Z</time>
      </trkpt>
      <trkpt lat="43.20975" lon="5.75032">
        <ele>122.19999694824</ele>
        <time>2016-04-18T14:44:57.000Z</time>
      </trkpt>
      <trkpt lat="43.20981" lon="5.75028">
        <ele>122.80000305176</ele>
        <time>2016-04-18T14:44:59.000Z</time>
      </trkpt>
      <trkpt lat="43.20984" lon="5.75026">
        <ele>123</ele>
        <time>2016-04-18T14:45:00.000Z</time>
      </trkpt>
      <trkpt lat="43.2099" lon="5.75021">
        <ele>123.80000305176</ele>
        <time>2016-04-18T14:45:02.000Z</time>
      </trkpt>
      <trkpt lat="43.21" lon="5.75013">
        <ele>125.19999694824</ele>
        <time>2016-04-18T14:45:05.000Z</time>
      </trkpt>
      <trkpt lat="43.21006" lon="5.75009">
        <ele>126.19999694824</ele>
        <time>2016-04-18T14:45:07.000Z</time>
      </trkpt>
      <trkpt lat="43.21009" lon="5.75009">
        <ele>126.59999847412</ele>
        <time>2016-04-18T14:45:08.000Z</time>
      </trkpt>
      <trkpt lat="43.21012" lon="5.75009">
        <ele>127</ele>
        <time>2016-04-18T14:45:09.000Z</time>
      </trkpt>
      <trkpt lat="43.21017" lon="5.75015">
        <ele>127.40000152588</ele>
        <time>2016-04-18T14:45:11.000Z</time>
      </trkpt>
      <trkpt lat="43.21021" lon="5.75023">
        <ele>127.59999847412</ele>
        <time>2016-04-18T14:45:13.000Z</time>
      </trkpt>
      <trkpt lat="43.21023" lon="5.75026">
        <ele>127.80000305176</ele>
        <time>2016-04-18T14:45:14.000Z</time>
      </trkpt>
      <trkpt lat="43.21026" lon="5.75035">
        <ele>128</ele>
        <time>2016-04-18T14:45:17.000Z</time>
      </trkpt>
      <trkpt lat="43.21033" lon="5.75057">
        <ele>128.39999389648</ele>
        <time>2016-04-18T14:45:23.000Z</time>
      </trkpt>
      <trkpt lat="43.21044" lon="5.75087">
        <ele>127.40000152588</ele>
        <time>2016-04-18T14:45:30.000Z</time>
      </trkpt>
      <trkpt lat="43.21057" lon="5.75114">
        <ele>127.19999694824</ele>
        <time>2016-04-18T14:45:35.000Z</time>
      </trkpt>
      <trkpt lat="43.21071" lon="5.75129">
        <ele>127.40000152588</ele>
        <time>2016-04-18T14:45:39.000Z</time>
      </trkpt>
      <trkpt lat="43.21079" lon="5.75134">
        <ele>127.59999847412</ele>
        <time>2016-04-18T14:45:41.000Z</time>
      </trkpt>
      <trkpt lat="43.21109" lon="5.7515">
        <ele>128.80000305176</ele>
        <time>2016-04-18T14:45:48.000Z</time>
      </trkpt>
      <trkpt lat="43.21118" lon="5.75155">
        <ele>129.60000610352</ele>
        <time>2016-04-18T14:45:50.000Z</time>
      </trkpt>
      <trkpt lat="43.21134" lon="5.75166">
        <ele>130.60000610352</ele>
        <time>2016-04-18T14:45:54.000Z</time>
      </trkpt>
      <trkpt lat="43.21141" lon="5.75171">
        <ele>131.19999694824</ele>
        <time>2016-04-18T14:45:56.000Z</time>
      </trkpt>
      <trkpt lat="43.21145" lon="5.75175">
        <ele>131.39999389648</ele>
        <time>2016-04-18T14:45:57.000Z</time>
      </trkpt>
      <trkpt lat="43.21157" lon="5.75192">
        <ele>132</ele>
        <time>2016-04-18T14:46:01.000Z</time>
      </trkpt>
      <trkpt lat="43.21165" lon="5.75206">
        <ele>132.19999694824</ele>
        <time>2016-04-18T14:46:04.000Z</time>
      </trkpt>
      <trkpt lat="43.21167" lon="5.75211">
        <ele>132.19999694824</ele>
        <time>2016-04-18T14:46:05.000Z</time>
      </trkpt>
      <trkpt lat="43.2118" lon="5.75235">
        <ele>133</ele>
        <time>2016-04-18T14:46:10.000Z</time>
      </trkpt>
      <trkpt lat="43.21186" lon="5.75245">
        <ele>133.19999694824</ele>
        <time>2016-04-18T14:46:12.000Z</time>
      </trkpt>
      <trkpt lat="43.21195" lon="5.75258">
        <ele>133.60000610352</ele>
        <time>2016-04-18T14:46:15.000Z</time>
      </trkpt>
      <trkpt lat="43.21206" lon="5.75267">
        <ele>134</ele>
        <time>2016-04-18T14:46:18.000Z</time>
      </trkpt>
      <trkpt lat="43.21227" lon="5.75278">
        <ele>135.19999694824</ele>
        <time>2016-04-18T14:46:23.000Z</time>
      </trkpt>
      <trkpt lat="43.21232" lon="5.75279">
        <ele>135.60000610352</ele>
        <time>2016-04-18T14:46:24.000Z</time>
      </trkpt>
      <trkpt lat="43.21236" lon="5.75279">
        <ele>135.80000305176</ele>
        <time>2016-04-18T14:46:25.000Z</time>
      </trkpt>
      <trkpt lat="43.21257" lon="5.75272">
        <ele>138</ele>
        <time>2016-04-18T14:46:30.000Z</time>
      </trkpt>
      <trkpt lat="43.21264" lon="5.75266">
        <ele>139</ele>
        <time>2016-04-18T14:46:32.000Z</time>
      </trkpt>
      <trkpt lat="43.21285" lon="5.75252">
        <ele>140.60000610352</ele>
        <time>2016-04-18T14:46:37.000Z</time>
      </trkpt>
      <trkpt lat="43.2129" lon="5.75249">
        <ele>141</ele>
        <time>2016-04-18T14:46:38.000Z</time>
      </trkpt>
      <trkpt lat="43.21304" lon="5.75248">
        <ele>141.19999694824</ele>
        <time>2016-04-18T14:46:41.000Z</time>
      </trkpt>
      <trkpt lat="43.21314" lon="5.75263">
        <ele>141.19999694824</ele>
        <time>2016-04-18T14:46:44.000Z</time>
      </trkpt>
      <trkpt lat="43.21317" lon="5.75289">
        <ele>140.39999389648</ele>
        <time>2016-04-18T14:46:48.000Z</time>
      </trkpt>
      <trkpt lat="43.21312" lon="5.75305">
        <ele>139.39999389648</ele>
        <time>2016-04-18T14:46:51.000Z</time>
      </trkpt>
      <trkpt lat="43.2131" lon="5.7531">
        <ele>139</ele>
        <time>2016-04-18T14:46:52.000Z</time>
      </trkpt>
      <trkpt lat="43.21308" lon="5.75315">
        <ele>138.80000305176</ele>
        <time>2016-04-18T14:46:53.000Z</time>
      </trkpt>
      <trkpt lat="43.21308" lon="5.7532">
        <ele>138.60000610352</ele>
        <time>2016-04-18T14:46:54.000Z</time>
      </trkpt>
      <trkpt lat="43.21309" lon="5.75325">
        <ele>138.60000610352</ele>
        <time>2016-04-18T14:46:55.000Z</time>
      </trkpt>
      <trkpt lat="43.21312" lon="5.75329">
        <ele>138.60000610352</ele>
        <time>2016-04-18T14:46:56.000Z</time>
      </trkpt>
      <trkpt lat="43.21319" lon="5.75333">
        <ele>138.80000305176</ele>
        <time>2016-04-18T14:46:58.000Z</time>
      </trkpt>
      <trkpt lat="43.21324" lon="5.75334">
        <ele>138.80000305176</ele>
        <time>2016-04-18T14:46:59.000Z</time>
      </trkpt>
      <trkpt lat="43.21328" lon="5.75336">
        <ele>139</ele>
        <time>2016-04-18T14:47:00.000Z</time>
      </trkpt>
      <trkpt lat="43.21357" lon="5.75341">
        <ele>139.80000305176</ele>
        <time>2016-04-18T14:47:07.000Z</time>
      </trkpt>
      <trkpt lat="43.21371" lon="5.75343">
        <ele>140</ele>
        <time>2016-04-18T14:47:10.000Z</time>
      </trkpt>
      <trkpt lat="43.21379" lon="5.75345">
        <ele>140</ele>
        <time>2016-04-18T14:47:12.000Z</time>
      </trkpt>
      <trkpt lat="43.21387" lon="5.75349">
        <ele>139.80000305176</ele>
        <time>2016-04-18T14:47:14.000Z</time>
      </trkpt>
      <trkpt lat="43.21416" lon="5.75362">
        <ele>140.19999694824</ele>
        <time>2016-04-18T14:47:21.000Z</time>
      </trkpt>
      <trkpt lat="43.21425" lon="5.75364">
        <ele>140.60000610352</ele>
        <time>2016-04-18T14:47:23.000Z</time>
      </trkpt>
      <trkpt lat="43.21461" lon="5.75364">
        <ele>141</ele>
        <time>2016-04-18T14:47:31.000Z</time>
      </trkpt>
      <trkpt lat="43.21498" lon="5.75367">
        <ele>141.19999694824</ele>
        <time>2016-04-18T14:47:39.000Z</time>
      </trkpt>
      <trkpt lat="43.21508" lon="5.75371">
        <ele>141</ele>
        <time>2016-04-18T14:47:41.000Z</time>
      </trkpt>
      <trkpt lat="43.21516" lon="5.75379">
        <ele>140.60000610352</ele>
        <time>2016-04-18T14:47:43.000Z</time>
      </trkpt>
      <trkpt lat="43.21525" lon="5.75395">
        <ele>140.19999694824</ele>
        <time>2016-04-18T14:47:46.000Z</time>
      </trkpt>
      <trkpt lat="43.21531" lon="5.75406">
        <ele>140</ele>
        <time>2016-04-18T14:47:48.000Z</time>
      </trkpt>
      <trkpt lat="43.21534" lon="5.75411">
        <ele>140</ele>
        <time>2016-04-18T14:47:49.000Z</time>
      </trkpt>
      <trkpt lat="43.21549" lon="5.75426">
        <ele>140</ele>
        <time>2016-04-18T14:47:53.000Z</time>
      </trkpt>
      <trkpt lat="43.21581" lon="5.75451">
        <ele>140.19999694824</ele>
        <time>2016-04-18T14:48:01.000Z</time>
      </trkpt>
      <trkpt lat="43.21586" lon="5.75454">
        <ele>140.19999694824</ele>
        <time>2016-04-18T14:48:02.000Z</time>
      </trkpt>
      <trkpt lat="43.21618" lon="5.75471">
        <ele>141</ele>
        <time>2016-04-18T14:48:09.000Z</time>
      </trkpt>
      <trkpt lat="43.21622" lon="5.75473">
        <ele>141.19999694824</ele>
        <time>2016-04-18T14:48:10.000Z</time>
      </trkpt>
      <trkpt lat="43.21652" lon="5.75485">
        <ele>142.39999389648</ele>
        <time>2016-04-18T14:48:17.000Z</time>
      </trkpt>
      <trkpt lat="43.21672" lon="5.75485">
        <ele>143.39999389648</ele>
        <time>2016-04-18T14:48:22.000Z</time>
      </trkpt>
      <trkpt lat="43.21693" lon="5.75481">
        <ele>143.60000610352</ele>
        <time>2016-04-18T14:48:28.000Z</time>
      </trkpt>
      <trkpt lat="43.21717" lon="5.75476">
        <ele>142.19999694824</ele>
        <time>2016-04-18T14:48:34.000Z</time>
      </trkpt>
      <trkpt lat="43.21731" lon="5.75471">
        <ele>141.39999389648</ele>
        <time>2016-04-18T14:48:37.000Z</time>
      </trkpt>
      <trkpt lat="43.21745" lon="5.75463">
        <ele>141</ele>
        <time>2016-04-18T14:48:40.000Z</time>
      </trkpt>
      <trkpt lat="43.2175" lon="5.7546">
        <ele>141</ele>
        <time>2016-04-18T14:48:41.000Z</time>
      </trkpt>
      <trkpt lat="43.21765" lon="5.75452">
        <ele>141.19999694824</ele>
        <time>2016-04-18T14:48:44.000Z</time>
      </trkpt>
      <trkpt lat="43.21773" lon="5.75447">
        <ele>141.80000305176</ele>
        <time>2016-04-18T14:48:46.000Z</time>
      </trkpt>
      <trkpt lat="43.21781" lon="5.75443">
        <ele>142.39999389648</ele>
        <time>2016-04-18T14:48:48.000Z</time>
      </trkpt>
      <trkpt lat="43.21794" lon="5.75437">
        <ele>143.19999694824</ele>
        <time>2016-04-18T14:48:52.000Z</time>
      </trkpt>
      <trkpt lat="43.21799" lon="5.75436">
        <ele>143.39999389648</ele>
        <time>2016-04-18T14:48:55.000Z</time>
      </trkpt>
      <trkpt lat="43.21805" lon="5.75434">
        <ele>143.80000305176</ele>
        <time>2016-04-18T14:48:57.000Z</time>
      </trkpt>
      <trkpt lat="43.21826" lon="5.75425">
        <ele>143.39999389648</ele>
        <time>2016-04-18T14:49:02.000Z</time>
      </trkpt>
      <trkpt lat="43.21845" lon="5.75424">
        <ele>143</ele>
        <time>2016-04-18T14:49:06.000Z</time>
      </trkpt>
      <trkpt lat="43.21854" lon="5.75427">
        <ele>143.60000610352</ele>
        <time>2016-04-18T14:49:08.000Z</time>
      </trkpt>
      <trkpt lat="43.21871" lon="5.75433">
        <ele>144.60000610352</ele>
        <time>2016-04-18T14:49:12.000Z</time>
      </trkpt>
      <trkpt lat="43.21881" lon="5.75431">
        <ele>145.19999694824</ele>
        <time>2016-04-18T14:49:14.000Z</time>
      </trkpt>
      <trkpt lat="43.21897" lon="5.75417">
        <ele>145.19999694824</ele>
        <time>2016-04-18T14:49:18.000Z</time>
      </trkpt>
      <trkpt lat="43.21921" lon="5.75392">
        <ele>145</ele>
        <time>2016-04-18T14:49:24.000Z</time>
      </trkpt>
      <trkpt lat="43.2193" lon="5.75387">
        <ele>145</ele>
        <time>2016-04-18T14:49:26.000Z</time>
      </trkpt>
      <trkpt lat="43.21949" lon="5.75386">
        <ele>145</ele>
        <time>2016-04-18T14:49:30.000Z</time>
      </trkpt>
      <trkpt lat="43.21971" lon="5.75397">
        <ele>145.19999694824</ele>
        <time>2016-04-18T14:49:35.000Z</time>
      </trkpt>
      <trkpt lat="43.22001" lon="5.75425">
        <ele>145.39999389648</ele>
        <time>2016-04-18T14:49:43.000Z</time>
      </trkpt>
      <trkpt lat="43.22005" lon="5.75428">
        <ele>145.39999389648</ele>
        <time>2016-04-18T14:49:44.000Z</time>
      </trkpt>
      <trkpt lat="43.22018" lon="5.75435">
        <ele>145.80000305176</ele>
        <time>2016-04-18T14:49:47.000Z</time>
      </trkpt>
      <trkpt lat="43.22035" lon="5.75444">
        <ele>146.80000305176</ele>
        <time>2016-04-18T14:49:51.000Z</time>
      </trkpt>
      <trkpt lat="43.22047" lon="5.75453">
        <ele>147.39999389648</ele>
        <time>2016-04-18T14:49:54.000Z</time>
      </trkpt>
      <trkpt lat="43.22061" lon="5.75466">
        <ele>148.19999694824</ele>
        <time>2016-04-18T14:49:58.000Z</time>
      </trkpt>
      <trkpt lat="43.22079" lon="5.75487">
        <ele>149.39999389648</ele>
        <time>2016-04-18T14:50:03.000Z</time>
      </trkpt>
      <trkpt lat="43.2209" lon="5.755">
        <ele>150</ele>
        <time>2016-04-18T14:50:06.000Z</time>
      </trkpt>
      <trkpt lat="43.22109" lon="5.75527">
        <ele>151.39999389648</ele>
        <time>2016-04-18T14:50:12.000Z</time>
      </trkpt>
      <trkpt lat="43.22118" lon="5.75542">
        <ele>152</ele>
        <time>2016-04-18T14:50:15.000Z</time>
      </trkpt>
      <trkpt lat="43.22121" lon="5.75546">
        <ele>152.19999694824</ele>
        <time>2016-04-18T14:50:16.000Z</time>
      </trkpt>
      <trkpt lat="43.2213" lon="5.75559">
        <ele>152.39999389648</ele>
        <time>2016-04-18T14:50:19.000Z</time>
      </trkpt>
      <trkpt lat="43.22139" lon="5.75571">
        <ele>152</ele>
        <time>2016-04-18T14:50:22.000Z</time>
      </trkpt>
      <trkpt lat="43.22145" lon="5.75578">
        <ele>151.60000610352</ele>
        <time>2016-04-18T14:50:24.000Z</time>
      </trkpt>
      <trkpt lat="43.22167" lon="5.75594">
        <ele>151.60000610352</ele>
        <time>2016-04-18T14:50:30.000Z</time>
      </trkpt>
      <trkpt lat="43.22171" lon="5.75596">
        <ele>151.60000610352</ele>
        <time>2016-04-18T14:50:31.000Z</time>
      </trkpt>
      <trkpt lat="43.22188" lon="5.756">
        <ele>152</ele>
        <time>2016-04-18T14:50:35.000Z</time>
      </trkpt>
      <trkpt lat="43.22201" lon="5.75603">
        <ele>152.39999389648</ele>
        <time>2016-04-18T14:50:38.000Z</time>
      </trkpt>
      <trkpt lat="43.22205" lon="5.75604">
        <ele>152.39999389648</ele>
        <time>2016-04-18T14:50:39.000Z</time>
      </trkpt>
      <trkpt lat="43.22225" lon="5.7561">
        <ele>152.60000610352</ele>
        <time>2016-04-18T14:50:44.000Z</time>
      </trkpt>
      <trkpt lat="43.22243" lon="5.75619">
        <ele>152.60000610352</ele>
        <time>2016-04-18T14:50:48.000Z</time>
      </trkpt>
      <trkpt lat="43.22251" lon="5.75626">
        <ele>152.39999389648</ele>
        <time>2016-04-18T14:50:50.000Z</time>
      </trkpt>
      <trkpt lat="43.22266" lon="5.75654">
        <ele>152.39999389648</ele>
        <time>2016-04-18T14:50:55.000Z</time>
      </trkpt>
      <trkpt lat="43.22269" lon="5.75666">
        <ele>152.60000610352</ele>
        <time>2016-04-18T14:50:57.000Z</time>
      </trkpt>
      <trkpt lat="43.22273" lon="5.7569">
        <ele>153.19999694824</ele>
        <time>2016-04-18T14:51:01.000Z</time>
      </trkpt>
      <trkpt lat="43.22275" lon="5.75726">
        <ele>153.60000610352</ele>
        <time>2016-04-18T14:51:07.000Z</time>
      </trkpt>
      <trkpt lat="43.22275" lon="5.75737">
        <ele>153.80000305176</ele>
        <time>2016-04-18T14:51:09.000Z</time>
      </trkpt>
      <trkpt lat="43.22274" lon="5.75806">
        <ele>158.60000610352</ele>
        <time>2016-04-18T14:51:21.000Z</time>
      </trkpt>
      <trkpt lat="43.22275" lon="5.75818">
        <ele>158.39999389648</ele>
        <time>2016-04-18T14:51:23.000Z</time>
      </trkpt>
      <trkpt lat="43.22275" lon="5.75823">
        <ele>158.19999694824</ele>
        <time>2016-04-18T14:51:24.000Z</time>
      </trkpt>
      <trkpt lat="43.22275" lon="5.75834">
        <ele>157.80000305176</ele>
        <time>2016-04-18T14:51:26.000Z</time>
      </trkpt>
      <trkpt lat="43.22277" lon="5.75859">
        <ele>156.80000305176</ele>
        <time>2016-04-18T14:51:31.000Z</time>
      </trkpt>
      <trkpt lat="43.22278" lon="5.75879">
        <ele>156.19999694824</ele>
        <time>2016-04-18T14:51:36.000Z</time>
      </trkpt>
      <trkpt lat="43.22278" lon="5.75882">
        <ele>156</ele>
        <time>2016-04-18T14:51:37.000Z</time>
      </trkpt>
      <trkpt lat="43.22276" lon="5.75888">
        <ele>155.80000305176</ele>
        <time>2016-04-18T14:51:39.000Z</time>
      </trkpt>
      <trkpt lat="43.22275" lon="5.75893">
        <ele>155.60000610352</ele>
        <time>2016-04-18T14:51:41.000Z</time>
      </trkpt>
      <trkpt lat="43.22273" lon="5.75898">
        <ele>155.60000610352</ele>
        <time>2016-04-18T14:51:43.000Z</time>
      </trkpt>
      <trkpt lat="43.22271" lon="5.75902">
        <ele>155.39999389648</ele>
        <time>2016-04-18T14:51:45.000Z</time>
      </trkpt>
      <trkpt lat="43.22264" lon="5.75914">
        <ele>154.80000305176</ele>
        <time>2016-04-18T14:51:50.000Z</time>
      </trkpt>
      <trkpt lat="43.22258" lon="5.75932">
        <ele>153.60000610352</ele>
        <time>2016-04-18T14:51:58.000Z</time>
      </trkpt>
      <trkpt lat="43.22249" lon="5.75952">
        <ele>152</ele>
        <time>2016-04-18T14:52:06.000Z</time>
      </trkpt>
      <trkpt lat="43.22237" lon="5.75967">
        <ele>151.39999389648</ele>
        <time>2016-04-18T14:52:13.000Z</time>
      </trkpt>
      <trkpt lat="43.22217" lon="5.7598">
        <ele>150.60000610352</ele>
        <time>2016-04-18T14:52:18.000Z</time>
      </trkpt>
      <trkpt lat="43.22213" lon="5.75983">
        <ele>150.39999389648</ele>
        <time>2016-04-18T14:52:19.000Z</time>
      </trkpt>
      <trkpt lat="43.22184" lon="5.75998">
        <ele>149.39999389648</ele>
        <time>2016-04-18T14:52:25.000Z</time>
      </trkpt>
      <trkpt lat="43.22173" lon="5.76002">
        <ele>149</ele>
        <time>2016-04-18T14:52:27.000Z</time>
      </trkpt>
      <trkpt lat="43.22149" lon="5.76009">
        <ele>147.19999694824</ele>
        <time>2016-04-18T14:52:32.000Z</time>
      </trkpt>
      <trkpt lat="43.22144" lon="5.7601">
        <ele>147</ele>
        <time>2016-04-18T14:52:33.000Z</time>
      </trkpt>
      <trkpt lat="43.22127" lon="5.76016">
        <ele>146.39999389648</ele>
        <time>2016-04-18T14:52:36.000Z</time>
      </trkpt>
      <trkpt lat="43.22111" lon="5.76025">
        <ele>146</ele>
        <time>2016-04-18T14:52:39.000Z</time>
      </trkpt>
      <trkpt lat="43.22106" lon="5.76027">
        <ele>146</ele>
        <time>2016-04-18T14:52:40.000Z</time>
      </trkpt>
      <trkpt lat="43.22092" lon="5.76035">
        <ele>145.60000610352</ele>
        <time>2016-04-18T14:52:43.000Z</time>
      </trkpt>
      <trkpt lat="43.22081" lon="5.76042">
        <ele>145.19999694824</ele>
        <time>2016-04-18T14:52:45.000Z</time>
      </trkpt>
      <trkpt lat="43.22076" lon="5.76047">
        <ele>144.80000305176</ele>
        <time>2016-04-18T14:52:46.000Z</time>
      </trkpt>
      <trkpt lat="43.2206" lon="5.76062">
        <ele>143.39999389648</ele>
        <time>2016-04-18T14:52:49.000Z</time>
      </trkpt>
      <trkpt lat="43.22049" lon="5.76072">
        <ele>142.39999389648</ele>
        <time>2016-04-18T14:52:51.000Z</time>
      </trkpt>
      <trkpt lat="43.22038" lon="5.76083">
        <ele>141.60000610352</ele>
        <time>2016-04-18T14:52:53.000Z</time>
      </trkpt>
      <trkpt lat="43.22015" lon="5.76105">
        <ele>140.80000305176</ele>
        <time>2016-04-18T14:52:57.000Z</time>
      </trkpt>
      <trkpt lat="43.22004" lon="5.76116">
        <ele>140.39999389648</ele>
        <time>2016-04-18T14:52:59.000Z</time>
      </trkpt>
      <trkpt lat="43.21999" lon="5.7612">
        <ele>140.39999389648</ele>
        <time>2016-04-18T14:53:00.000Z</time>
      </trkpt>
      <trkpt lat="43.21987" lon="5.76132">
        <ele>139.60000610352</ele>
        <time>2016-04-18T14:53:03.000Z</time>
      </trkpt>
      <trkpt lat="43.21983" lon="5.76135">
        <ele>139.19999694824</ele>
        <time>2016-04-18T14:53:04.000Z</time>
      </trkpt>
      <trkpt lat="43.21974" lon="5.76142">
        <ele>138.80000305176</ele>
        <time>2016-04-18T14:53:07.000Z</time>
      </trkpt>
      <trkpt lat="43.21968" lon="5.76142">
        <ele>138.39999389648</ele>
        <time>2016-04-18T14:53:09.000Z</time>
      </trkpt>
      <trkpt lat="43.21965" lon="5.76142">
        <ele>138.19999694824</ele>
        <time>2016-04-18T14:53:10.000Z</time>
      </trkpt>
      <trkpt lat="43.21951" lon="5.7614">
        <ele>137.39999389648</ele>
        <time>2016-04-18T14:53:14.000Z</time>
      </trkpt>
      <trkpt lat="43.21946" lon="5.76139">
        <ele>137</ele>
        <time>2016-04-18T14:53:15.000Z</time>
      </trkpt>
      <trkpt lat="43.2193" lon="5.76133">
        <ele>136.19999694824</ele>
        <time>2016-04-18T14:53:18.000Z</time>
      </trkpt>
      <trkpt lat="43.21918" lon="5.76133">
        <ele>136.19999694824</ele>
        <time>2016-04-18T14:53:20.000Z</time>
      </trkpt>
      <trkpt lat="43.21913" lon="5.76133">
        <ele>136</ele>
        <time>2016-04-18T14:53:21.000Z</time>
      </trkpt>
      <trkpt lat="43.21889" lon="5.76132">
        <ele>135.39999389648</ele>
        <time>2016-04-18T14:53:26.000Z</time>
      </trkpt>
      <trkpt lat="43.21885" lon="5.76131">
        <ele>135.39999389648</ele>
        <time>2016-04-18T14:53:27.000Z</time>
      </trkpt>
      <trkpt lat="43.21867" lon="5.76124">
        <ele>135.60000610352</ele>
        <time>2016-04-18T14:53:33.000Z</time>
      </trkpt>
      <trkpt lat="43.21849" lon="5.76112">
        <ele>136</ele>
        <time>2016-04-18T14:53:38.000Z</time>
      </trkpt>
      <trkpt lat="43.21845" lon="5.7611">
        <ele>136</ele>
        <time>2016-04-18T14:53:39.000Z</time>
      </trkpt>
      <trkpt lat="43.21817" lon="5.76098">
        <ele>138.19999694824</ele>
        <time>2016-04-18T14:53:45.000Z</time>
      </trkpt>
      <trkpt lat="43.21779" lon="5.7609">
        <ele>139.60000610352</ele>
        <time>2016-04-18T14:53:53.000Z</time>
      </trkpt>
      <trkpt lat="43.21745" lon="5.76094">
        <ele>140.60000610352</ele>
        <time>2016-04-18T14:54:00.000Z</time>
      </trkpt>
      <trkpt lat="43.21722" lon="5.76106">
        <ele>141</ele>
        <time>2016-04-18T14:54:06.000Z</time>
      </trkpt>
      <trkpt lat="43.21711" lon="5.76121">
        <ele>141.80000305176</ele>
        <time>2016-04-18T14:54:10.000Z</time>
      </trkpt>
      <trkpt lat="43.21697" lon="5.76135">
        <ele>142.60000610352</ele>
        <time>2016-04-18T14:54:14.000Z</time>
      </trkpt>
      <trkpt lat="43.2168" lon="5.76149">
        <ele>143.80000305176</ele>
        <time>2016-04-18T14:54:18.000Z</time>
      </trkpt>
      <trkpt lat="43.21666" lon="5.76159">
        <ele>142.39999389648</ele>
        <time>2016-04-18T14:54:21.000Z</time>
      </trkpt>
      <trkpt lat="43.21661" lon="5.76163">
        <ele>141.80000305176</ele>
        <time>2016-04-18T14:54:22.000Z</time>
      </trkpt>
      <trkpt lat="43.21649" lon="5.76173">
        <ele>140.60000610352</ele>
        <time>2016-04-18T14:54:25.000Z</time>
      </trkpt>
      <trkpt lat="43.21634" lon="5.7618">
        <ele>139.60000610352</ele>
        <time>2016-04-18T14:54:28.000Z</time>
      </trkpt>
      <trkpt lat="43.21624" lon="5.76183">
        <ele>139.60000610352</ele>
        <time>2016-04-18T14:54:30.000Z</time>
      </trkpt>
      <trkpt lat="43.21613" lon="5.76183">
        <ele>139.80000305176</ele>
        <time>2016-04-18T14:54:32.000Z</time>
      </trkpt>
      <trkpt lat="43.21581" lon="5.76179">
        <ele>139.60000610352</ele>
        <time>2016-04-18T14:54:37.000Z</time>
      </trkpt>
      <trkpt lat="43.21523" lon="5.76168">
        <ele>137.19999694824</ele>
        <time>2016-04-18T14:54:45.000Z</time>
      </trkpt>
      <trkpt lat="43.21509" lon="5.76166">
        <ele>136.80000305176</ele>
        <time>2016-04-18T14:54:47.000Z</time>
      </trkpt>
      <trkpt lat="43.2149" lon="5.76162">
        <ele>135.60000610352</ele>
        <time>2016-04-18T14:54:50.000Z</time>
      </trkpt>
      <trkpt lat="43.21483" lon="5.7616">
        <ele>135.19999694824</ele>
        <time>2016-04-18T14:54:51.000Z</time>
      </trkpt>
      <trkpt lat="43.21465" lon="5.76157">
        <ele>133.80000305176</ele>
        <time>2016-04-18T14:54:54.000Z</time>
      </trkpt>
      <trkpt lat="43.21441" lon="5.76152">
        <ele>132.39999389648</ele>
        <time>2016-04-18T14:54:58.000Z</time>
      </trkpt>
      <trkpt lat="43.21435" lon="5.7615">
        <ele>132</ele>
        <time>2016-04-18T14:54:59.000Z</time>
      </trkpt>
      <trkpt lat="43.21416" lon="5.76146">
        <ele>130.39999389648</ele>
        <time>2016-04-18T14:55:02.000Z</time>
      </trkpt>
      <trkpt lat="43.21397" lon="5.76141">
        <ele>128.39999389648</ele>
        <time>2016-04-18T14:55:05.000Z</time>
      </trkpt>
      <trkpt lat="43.21391" lon="5.76139">
        <ele>127.80000305176</ele>
        <time>2016-04-18T14:55:06.000Z</time>
      </trkpt>
      <trkpt lat="43.21373" lon="5.76136">
        <ele>126</ele>
        <time>2016-04-18T14:55:09.000Z</time>
      </trkpt>
      <trkpt lat="43.21349" lon="5.76131">
        <ele>123.59999847412</ele>
        <time>2016-04-18T14:55:13.000Z</time>
      </trkpt>
      <trkpt lat="43.21343" lon="5.76129">
        <ele>123.19999694824</ele>
        <time>2016-04-18T14:55:14.000Z</time>
      </trkpt>
      <trkpt lat="43.2133" lon="5.76126">
        <ele>123.19999694824</ele>
        <time>2016-04-18T14:55:16.000Z</time>
      </trkpt>
      <trkpt lat="43.21302" lon="5.76123">
        <ele>122.40000152588</ele>
        <time>2016-04-18T14:55:20.000Z</time>
      </trkpt>
      <trkpt lat="43.21295" lon="5.76121">
        <ele>122.19999694824</ele>
        <time>2016-04-18T14:55:21.000Z</time>
      </trkpt>
      <trkpt lat="43.21288" lon="5.7612">
        <ele>122</ele>
        <time>2016-04-18T14:55:22.000Z</time>
      </trkpt>
      <trkpt lat="43.21274" lon="5.76116">
        <ele>121.80000305176</ele>
        <time>2016-04-18T14:55:24.000Z</time>
      </trkpt>
      <trkpt lat="43.21268" lon="5.76112">
        <ele>121.80000305176</ele>
        <time>2016-04-18T14:55:25.000Z</time>
      </trkpt>
      <trkpt lat="43.21262" lon="5.76109">
        <ele>121.80000305176</ele>
        <time>2016-04-18T14:55:26.000Z</time>
      </trkpt>
      <trkpt lat="43.21246" lon="5.76099">
        <ele>122.80000305176</ele>
        <time>2016-04-18T14:55:29.000Z</time>
      </trkpt>
      <trkpt lat="43.21235" lon="5.76097">
        <ele>123.40000152588</ele>
        <time>2016-04-18T14:55:31.000Z</time>
      </trkpt>
      <trkpt lat="43.21212" lon="5.76101">
        <ele>123.40000152588</ele>
        <time>2016-04-18T14:55:36.000Z</time>
      </trkpt>
      <trkpt lat="43.21175" lon="5.7612">
        <ele>120.80000305176</ele>
        <time>2016-04-18T14:55:44.000Z</time>
      </trkpt>
      <trkpt lat="43.21142" lon="5.76131">
        <ele>119</ele>
        <time>2016-04-18T14:55:51.000Z</time>
      </trkpt>
      <trkpt lat="43.21137" lon="5.76133">
        <ele>118.80000305176</ele>
        <time>2016-04-18T14:55:52.000Z</time>
      </trkpt>
      <trkpt lat="43.21096" lon="5.76154">
        <ele>117.40000152588</ele>
        <time>2016-04-18T14:56:01.000Z</time>
      </trkpt>
      <trkpt lat="43.21074" lon="5.76163">
        <ele>116.40000152588</ele>
        <time>2016-04-18T14:56:07.000Z</time>
      </trkpt>
      <trkpt lat="43.2107" lon="5.76169">
        <ele>116</ele>
        <time>2016-04-18T14:56:09.000Z</time>
      </trkpt>
      <trkpt lat="43.21068" lon="5.76174">
        <ele>115.80000305176</ele>
        <time>2016-04-18T14:56:10.000Z</time>
      </trkpt>
      <trkpt lat="43.21066" lon="5.76178">
        <ele>115.59999847412</ele>
        <time>2016-04-18T14:56:11.000Z</time>
      </trkpt>
      <trkpt lat="43.21055" lon="5.76197">
        <ele>114.80000305176</ele>
        <time>2016-04-18T14:56:15.000Z</time>
      </trkpt>
      <trkpt lat="43.21053" lon="5.76202">
        <ele>114.80000305176</ele>
        <time>2016-04-18T14:56:16.000Z</time>
      </trkpt>
      <trkpt lat="43.21036" lon="5.76232">
        <ele>114.19999694824</ele>
        <time>2016-04-18T14:56:21.000Z</time>
      </trkpt>
      <trkpt lat="43.21022" lon="5.76251">
        <ele>114</ele>
        <time>2016-04-18T14:56:24.000Z</time>
      </trkpt>
      <trkpt lat="43.21009" lon="5.7627">
        <ele>114</ele>
        <time>2016-04-18T14:56:27.000Z</time>
      </trkpt>
      <trkpt lat="43.21005" lon="5.76276">
        <ele>114</ele>
        <time>2016-04-18T14:56:28.000Z</time>
      </trkpt>
      <trkpt lat="43.20994" lon="5.76293">
        <ele>113.59999847412</ele>
        <time>2016-04-18T14:56:31.000Z</time>
      </trkpt>
      <trkpt lat="43.20985" lon="5.76303">
        <ele>113</ele>
        <time>2016-04-18T14:56:33.000Z</time>
      </trkpt>
      <trkpt lat="43.20975" lon="5.76311">
        <ele>112.59999847412</ele>
        <time>2016-04-18T14:56:35.000Z</time>
      </trkpt>
      <trkpt lat="43.20937" lon="5.76333">
        <ele>110.19999694824</ele>
        <time>2016-04-18T14:56:42.000Z</time>
      </trkpt>
      <trkpt lat="43.20909" lon="5.76348">
        <ele>108.59999847412</ele>
        <time>2016-04-18T14:56:47.000Z</time>
      </trkpt>
      <trkpt lat="43.20884" lon="5.76363">
        <ele>107.59999847412</ele>
        <time>2016-04-18T14:56:52.000Z</time>
      </trkpt>
      <trkpt lat="43.2086" lon="5.76377">
        <ele>106.59999847412</ele>
        <time>2016-04-18T14:56:57.000Z</time>
      </trkpt>
      <trkpt lat="43.20842" lon="5.76388">
        <ele>106</ele>
        <time>2016-04-18T14:57:01.000Z</time>
      </trkpt>
      <trkpt lat="43.20823" lon="5.764">
        <ele>105.59999847412</ele>
        <time>2016-04-18T14:57:06.000Z</time>
      </trkpt>
      <trkpt lat="43.20811" lon="5.76408">
        <ele>105.19999694824</ele>
        <time>2016-04-18T14:57:09.000Z</time>
      </trkpt>
      <trkpt lat="43.20802" lon="5.76414">
        <ele>105</ele>
        <time>2016-04-18T14:57:11.000Z</time>
      </trkpt>
      <trkpt lat="43.20781" lon="5.76431">
        <ele>104.80000305176</ele>
        <time>2016-04-18T14:57:16.000Z</time>
      </trkpt>
      <trkpt lat="43.20776" lon="5.76434">
        <ele>104.80000305176</ele>
        <time>2016-04-18T14:57:17.000Z</time>
      </trkpt>
      <trkpt lat="43.20766" lon="5.76445">
        <ele>104.59999847412</ele>
        <time>2016-04-18T14:57:20.000Z</time>
      </trkpt>
      <trkpt lat="43.20765" lon="5.76451">
        <ele>104.40000152588</ele>
        <time>2016-04-18T14:57:21.000Z</time>
      </trkpt>
      <trkpt lat="43.20765" lon="5.76458">
        <ele>104.19999694824</ele>
        <time>2016-04-18T14:57:22.000Z</time>
      </trkpt>
      <trkpt lat="43.20768" lon="5.76471">
        <ele>104</ele>
        <time>2016-04-18T14:57:24.000Z</time>
      </trkpt>
      <trkpt lat="43.2077" lon="5.76485">
        <ele>104</ele>
        <time>2016-04-18T14:57:26.000Z</time>
      </trkpt>
      <trkpt lat="43.20767" lon="5.76504">
        <ele>103.19999694824</ele>
        <time>2016-04-18T14:57:29.000Z</time>
      </trkpt>
      <trkpt lat="43.20757" lon="5.76517">
        <ele>102.19999694824</ele>
        <time>2016-04-18T14:57:32.000Z</time>
      </trkpt>
      <trkpt lat="43.2075" lon="5.7652">
        <ele>102</ele>
        <time>2016-04-18T14:57:34.000Z</time>
      </trkpt>
      <trkpt lat="43.20746" lon="5.76521">
        <ele>101.80000305176</ele>
        <time>2016-04-18T14:57:36.000Z</time>
      </trkpt>
      <trkpt lat="43.20742" lon="5.76523">
        <ele>101.59999847412</ele>
        <time>2016-04-18T14:59:29.000Z</time>
      </trkpt>
      <trkpt lat="43.20739" lon="5.76525">
        <ele>101.40000152588</ele>
        <time>2016-04-18T14:59:31.000Z</time>
      </trkpt>
      <trkpt lat="43.20734" lon="5.76527">
        <ele>101.40000152588</ele>
        <time>2016-04-18T14:59:34.000Z</time>
      </trkpt>
      <trkpt lat="43.20731" lon="5.76528">
        <ele>101.19999694824</ele>
        <time>2016-04-18T14:59:37.000Z</time>
      </trkpt>
      <trkpt lat="43.20729" lon="5.76528">
        <ele>101.19999694824</ele>
        <time>2016-04-18T14:59:52.000Z</time>
      </trkpt>
      <trkpt lat="43.20727" lon="5.76529">
        <ele>101.19999694824</ele>
        <time>2016-04-18T14:59:53.000Z</time>
      </trkpt>
      <trkpt lat="43.20714" lon="5.76534">
        <ele>101</ele>
        <time>2016-04-18T14:59:58.000Z</time>
      </trkpt>
      <trkpt lat="43.20711" lon="5.76536">
        <ele>100.80000305176</ele>
        <time>2016-04-18T14:59:59.000Z</time>
      </trkpt>
      <trkpt lat="43.2069" lon="5.76546">
        <ele>100.40000152588</ele>
        <time>2016-04-18T15:00:04.000Z</time>
      </trkpt>
      <trkpt lat="43.20682" lon="5.76552">
        <ele>100.19999694824</ele>
        <time>2016-04-18T15:00:06.000Z</time>
      </trkpt>
      <trkpt lat="43.2067" lon="5.76567">
        <ele>100</ele>
        <time>2016-04-18T15:00:09.000Z</time>
      </trkpt>
      <trkpt lat="43.2066" lon="5.76577">
        <ele>100</ele>
        <time>2016-04-18T15:00:11.000Z</time>
      </trkpt>
      <trkpt lat="43.20646" lon="5.76582">
        <ele>100</ele>
        <time>2016-04-18T15:00:13.000Z</time>
      </trkpt>
      <trkpt lat="43.20639" lon="5.76585">
        <ele>99.800003051758</ele>
        <time>2016-04-18T15:00:14.000Z</time>
      </trkpt>
      <trkpt lat="43.20604" lon="5.766">
        <ele>99.199996948242</ele>
        <time>2016-04-18T15:00:20.000Z</time>
      </trkpt>
      <trkpt lat="43.20599" lon="5.76602">
        <ele>99</ele>
        <time>2016-04-18T15:00:21.000Z</time>
      </trkpt>
      <trkpt lat="43.2056" lon="5.76623">
        <ele>98</ele>
        <time>2016-04-18T15:00:28.000Z</time>
      </trkpt>
      <trkpt lat="43.20539" lon="5.76638">
        <ele>96.400001525879</ele>
        <time>2016-04-18T15:00:32.000Z</time>
      </trkpt>
      <trkpt lat="43.20534" lon="5.7664">
        <ele>96.199996948242</ele>
        <time>2016-04-18T15:00:33.000Z</time>
      </trkpt>
      <trkpt lat="43.20529" lon="5.76641">
        <ele>95.800003051758</ele>
        <time>2016-04-18T15:00:34.000Z</time>
      </trkpt>
      <trkpt lat="43.20518" lon="5.76639">
        <ele>95.400001525879</ele>
        <time>2016-04-18T15:00:36.000Z</time>
      </trkpt>
      <trkpt lat="43.20507" lon="5.76635">
        <ele>95</ele>
        <time>2016-04-18T15:00:38.000Z</time>
      </trkpt>
      <trkpt lat="43.20482" lon="5.76628">
        <ele>94.800003051758</ele>
        <time>2016-04-18T15:00:43.000Z</time>
      </trkpt>
      <trkpt lat="43.20472" lon="5.76625">
        <ele>94.599998474121</ele>
        <time>2016-04-18T15:00:45.000Z</time>
      </trkpt>
      <trkpt lat="43.20467" lon="5.76623">
        <ele>94.599998474121</ele>
        <time>2016-04-18T15:00:46.000Z</time>
      </trkpt>
      <trkpt lat="43.20459" lon="5.76616">
        <ele>94.800003051758</ele>
        <time>2016-04-18T15:00:48.000Z</time>
      </trkpt>
      <trkpt lat="43.20451" lon="5.76609">
        <ele>95</ele>
        <time>2016-04-18T15:00:50.000Z</time>
      </trkpt>
      <trkpt lat="43.20434" lon="5.76592">
        <ele>95.400001525879</ele>
        <time>2016-04-18T15:00:55.000Z</time>
      </trkpt>
      <trkpt lat="43.20412" lon="5.76568">
        <ele>96.199996948242</ele>
        <time>2016-04-18T15:01:02.000Z</time>
      </trkpt>
      <trkpt lat="43.20408" lon="5.76565">
        <ele>96.199996948242</ele>
        <time>2016-04-18T15:01:03.000Z</time>
      </trkpt>
      <trkpt lat="43.20395" lon="5.76566">
        <ele>96</ele>
        <time>2016-04-18T15:01:06.000Z</time>
      </trkpt>
      <trkpt lat="43.2039" lon="5.76567">
        <ele>96</ele>
        <time>2016-04-18T15:01:07.000Z</time>
      </trkpt>
      <trkpt lat="43.20358" lon="5.76578">
        <ele>95</ele>
        <time>2016-04-18T15:01:14.000Z</time>
      </trkpt>
      <trkpt lat="43.20321" lon="5.76591">
        <ele>94.800003051758</ele>
        <time>2016-04-18T15:01:21.000Z</time>
      </trkpt>
      <trkpt lat="43.20316" lon="5.76593">
        <ele>94.800003051758</ele>
        <time>2016-04-18T15:01:22.000Z</time>
      </trkpt>
      <trkpt lat="43.2029" lon="5.76609">
        <ele>94.599998474121</ele>
        <time>2016-04-18T15:01:27.000Z</time>
      </trkpt>
      <trkpt lat="43.2028" lon="5.76618">
        <ele>94.599998474121</ele>
        <time>2016-04-18T15:01:29.000Z</time>
      </trkpt>
      <trkpt lat="43.20256" lon="5.76634">
        <ele>94</ele>
        <time>2016-04-18T15:01:34.000Z</time>
      </trkpt>
      <trkpt lat="43.20246" lon="5.76641">
        <ele>94</ele>
        <time>2016-04-18T15:01:36.000Z</time>
      </trkpt>
      <trkpt lat="43.20242" lon="5.76645">
        <ele>93.800003051758</ele>
        <time>2016-04-18T15:01:37.000Z</time>
      </trkpt>
      <trkpt lat="43.20231" lon="5.76661">
        <ele>93.400001525879</ele>
        <time>2016-04-18T15:01:40.000Z</time>
      </trkpt>
      <trkpt lat="43.20225" lon="5.76677">
        <ele>93</ele>
        <time>2016-04-18T15:01:43.000Z</time>
      </trkpt>
      <trkpt lat="43.20221" lon="5.76686">
        <ele>92.800003051758</ele>
        <time>2016-04-18T15:01:45.000Z</time>
      </trkpt>
      <trkpt lat="43.20211" lon="5.76714">
        <ele>91.599998474121</ele>
        <time>2016-04-18T15:01:51.000Z</time>
      </trkpt>
      <trkpt lat="43.20198" lon="5.76725">
        <ele>91.400001525879</ele>
        <time>2016-04-18T15:01:56.000Z</time>
      </trkpt>
      <trkpt lat="43.20194" lon="5.7673">
        <ele>91.400001525879</ele>
        <time>2016-04-18T15:02:03.000Z</time>
      </trkpt>
      <trkpt lat="43.20185" lon="5.76736">
        <ele>91.199996948242</ele>
        <time>2016-04-18T15:02:07.000Z</time>
      </trkpt>
      <trkpt lat="43.20183" lon="5.76738">
        <ele>91.199996948242</ele>
        <time>2016-04-18T15:02:08.000Z</time>
      </trkpt>
      <trkpt lat="43.20169" lon="5.7675">
        <ele>91.199996948242</ele>
        <time>2016-04-18T15:02:13.000Z</time>
      </trkpt>
      <trkpt lat="43.20166" lon="5.76753">
        <ele>91.199996948242</ele>
        <time>2016-04-18T15:02:14.000Z</time>
      </trkpt>
      <trkpt lat="43.20155" lon="5.76767">
        <ele>91.199996948242</ele>
        <time>2016-04-18T15:02:18.000Z</time>
      </trkpt>
      <trkpt lat="43.20152" lon="5.76774">
        <ele>91.400001525879</ele>
        <time>2016-04-18T15:02:20.000Z</time>
      </trkpt>
      <trkpt lat="43.20148" lon="5.76784">
        <ele>90.800003051758</ele>
        <time>2016-04-18T15:02:24.000Z</time>
      </trkpt>
      <trkpt lat="43.20147" lon="5.76785">
        <ele>90.800003051758</ele>
        <time>2016-04-18T15:02:25.000Z</time>
      </trkpt>
      <trkpt lat="43.20145" lon="5.76786">
        <ele>90.599998474121</ele>
        <time>2016-04-18T15:02:41.000Z</time>
      </trkpt>
      <trkpt lat="43.20144" lon="5.76786">
        <ele>90.599998474121</ele>
        <time>2016-04-18T15:02:42.000Z</time>
      </trkpt>
      <trkpt lat="43.20142" lon="5.76786">
        <ele>90.599998474121</ele>
        <time>2016-04-18T15:02:43.000Z</time>
      </trkpt>
      <trkpt lat="43.2014" lon="5.76786">
        <ele>90.599998474121</ele>
        <time>2016-04-18T15:02:44.000Z</time>
      </trkpt>
      <trkpt lat="43.20127" lon="5.76781">
        <ele>90.199996948242</ele>
        <time>2016-04-18T15:02:50.000Z</time>
      </trkpt>
      <trkpt lat="43.20103" lon="5.76767">
        <ele>90.199996948242</ele>
        <time>2016-04-18T15:02:57.000Z</time>
      </trkpt>
      <trkpt lat="43.2009" lon="5.76756">
        <ele>90.400001525879</ele>
        <time>2016-04-18T15:03:01.000Z</time>
      </trkpt>
      <trkpt lat="43.20074" lon="5.76741">
        <ele>91</ele>
        <time>2016-04-18T15:03:06.000Z</time>
      </trkpt>
      <trkpt lat="43.20071" lon="5.76738">
        <ele>91.199996948242</ele>
        <time>2016-04-18T15:03:07.000Z</time>
      </trkpt>
      <trkpt lat="43.2005" lon="5.76719">
        <ele>92</ele>
        <time>2016-04-18T15:03:13.000Z</time>
      </trkpt>
      <trkpt lat="43.20046" lon="5.76715">
        <ele>92</ele>
        <time>2016-04-18T15:03:14.000Z</time>
      </trkpt>
      <trkpt lat="43.20025" lon="5.76683">
        <ele>92.400001525879</ele>
        <time>2016-04-18T15:03:21.000Z</time>
      </trkpt>
      <trkpt lat="43.2001" lon="5.76646">
        <ele>92.800003051758</ele>
        <time>2016-04-18T15:03:27.000Z</time>
      </trkpt>
      <trkpt lat="43.19993" lon="5.76584">
        <ele>91.599998474121</ele>
        <time>2016-04-18T15:03:35.000Z</time>
      </trkpt>
      <trkpt lat="43.19992" lon="5.76575">
        <ele>91.599998474121</ele>
        <time>2016-04-18T15:03:36.000Z</time>
      </trkpt>
      <trkpt lat="43.19993" lon="5.76549">
        <ele>91.599998474121</ele>
        <time>2016-04-18T15:03:39.000Z</time>
      </trkpt>
      <trkpt lat="43.19994" lon="5.76531">
        <ele>91</ele>
        <time>2016-04-18T15:03:41.000Z</time>
      </trkpt>
      <trkpt lat="43.19999" lon="5.76479">
        <ele>88</ele>
        <time>2016-04-18T15:03:47.000Z</time>
      </trkpt>
      <trkpt lat="43.2" lon="5.76462">
        <ele>87.400001525879</ele>
        <time>2016-04-18T15:03:49.000Z</time>
      </trkpt>
      <trkpt lat="43.2" lon="5.76453">
        <ele>87.400001525879</ele>
        <time>2016-04-18T15:03:50.000Z</time>
      </trkpt>
      <trkpt lat="43.20002" lon="5.7643">
        <ele>86.800003051758</ele>
        <time>2016-04-18T15:03:53.000Z</time>
      </trkpt>
      <trkpt lat="43.20003" lon="5.76406">
        <ele>86.199996948242</ele>
        <time>2016-04-18T15:03:56.000Z</time>
      </trkpt>
      <trkpt lat="43.20004" lon="5.76397">
        <ele>86</ele>
        <time>2016-04-18T15:03:57.000Z</time>
      </trkpt>
      <trkpt lat="43.20005" lon="5.76352">
        <ele>85.400001525879</ele>
        <time>2016-04-18T15:04:03.000Z</time>
      </trkpt>
      <trkpt lat="43.20005" lon="5.76333">
        <ele>85.199996948242</ele>
        <time>2016-04-18T15:04:06.000Z</time>
      </trkpt>
      <trkpt lat="43.20009" lon="5.76316">
        <ele>85.199996948242</ele>
        <time>2016-04-18T15:04:09.000Z</time>
      </trkpt>
      <trkpt lat="43.2001" lon="5.7631">
        <ele>85</ele>
        <time>2016-04-18T15:04:10.000Z</time>
      </trkpt>
      <trkpt lat="43.20009" lon="5.76289">
        <ele>85</ele>
        <time>2016-04-18T15:04:13.000Z</time>
      </trkpt>
      <trkpt lat="43.20012" lon="5.76253">
        <ele>85</ele>
        <time>2016-04-18T15:04:18.000Z</time>
      </trkpt>
      <trkpt lat="43.20012" lon="5.76246">
        <ele>85</ele>
        <time>2016-04-18T15:04:19.000Z</time>
      </trkpt>
      <trkpt lat="43.20011" lon="5.76188">
        <ele>84.599998474121</ele>
        <time>2016-04-18T15:04:27.000Z</time>
      </trkpt>
      <trkpt lat="43.20002" lon="5.76119">
        <ele>84</ele>
        <time>2016-04-18T15:04:37.000Z</time>
      </trkpt>
      <trkpt lat="43.20001" lon="5.76098">
        <ele>84.400001525879</ele>
        <time>2016-04-18T15:04:40.000Z</time>
      </trkpt>
      <trkpt lat="43.20002" lon="5.76065">
        <ele>85.199996948242</ele>
        <time>2016-04-18T15:04:45.000Z</time>
      </trkpt>
      <trkpt lat="43.20004" lon="5.76052">
        <ele>85.599998474121</ele>
        <time>2016-04-18T15:04:47.000Z</time>
      </trkpt>
      <trkpt lat="43.20009" lon="5.76026">
        <ele>85.599998474121</ele>
        <time>2016-04-18T15:04:51.000Z</time>
      </trkpt>
      <trkpt lat="43.2001" lon="5.76021">
        <ele>85.599998474121</ele>
        <time>2016-04-18T15:04:52.000Z</time>
      </trkpt>
      <trkpt lat="43.20013" lon="5.7601">
        <ele>85.400001525879</ele>
        <time>2016-04-18T15:04:56.000Z</time>
      </trkpt>
      <trkpt lat="43.20011" lon="5.76005">
        <ele>85.400001525879</ele>
        <time>2016-04-18T15:04:57.000Z</time>
      </trkpt>
      <trkpt lat="43.20006" lon="5.76">
        <ele>85.199996948242</ele>
        <time>2016-04-18T15:04:59.000Z</time>
      </trkpt>
      <trkpt lat="43.20002" lon="5.75997">
        <ele>85</ele>
        <time>2016-04-18T15:05:01.000Z</time>
      </trkpt>
      <trkpt lat="43.19999" lon="5.75997">
        <ele>85</ele>
        <time>2016-04-18T15:05:03.000Z</time>
      </trkpt>
      <trkpt lat="43.19985" lon="5.75994">
        <ele>84.599998474121</ele>
        <time>2016-04-18T15:05:07.000Z</time>
      </trkpt>
      <trkpt lat="43.19945" lon="5.75977">
        <ele>83.400001525879</ele>
        <time>2016-04-18T15:05:16.000Z</time>
      </trkpt>
      <trkpt lat="43.19941" lon="5.75975">
        <ele>83.400001525879</ele>
        <time>2016-04-18T15:05:17.000Z</time>
      </trkpt>
      <trkpt lat="43.19925" lon="5.75967">
        <ele>83.199996948242</ele>
        <time>2016-04-18T15:05:21.000Z</time>
      </trkpt>
      <trkpt lat="43.1991" lon="5.7596">
        <ele>84.199996948242</ele>
        <time>2016-04-18T15:05:25.000Z</time>
      </trkpt>
      <trkpt lat="43.19906" lon="5.75958">
        <ele>84.599998474121</ele>
        <time>2016-04-18T15:05:26.000Z</time>
      </trkpt>
      <trkpt lat="43.19886" lon="5.75948">
        <ele>85.800003051758</ele>
        <time>2016-04-18T15:05:31.000Z</time>
      </trkpt>
      <trkpt lat="43.19874" lon="5.75942">
        <ele>86.599998474121</ele>
        <time>2016-04-18T15:05:34.000Z</time>
      </trkpt>
      <trkpt lat="43.19866" lon="5.75938">
        <ele>87.199996948242</ele>
        <time>2016-04-18T15:05:36.000Z</time>
      </trkpt>
      <trkpt lat="43.19854" lon="5.75932">
        <ele>88</ele>
        <time>2016-04-18T15:05:39.000Z</time>
      </trkpt>
      <trkpt lat="43.19839" lon="5.75924">
        <ele>90.400001525879</ele>
        <time>2016-04-18T15:05:43.000Z</time>
      </trkpt>
      <trkpt lat="43.19834" lon="5.75923">
        <ele>91.599998474121</ele>
        <time>2016-04-18T15:05:44.000Z</time>
      </trkpt>
      <trkpt lat="43.19822" lon="5.7592">
        <ele>95</ele>
        <time>2016-04-18T15:05:47.000Z</time>
      </trkpt>
      <trkpt lat="43.19805" lon="5.75922">
        <ele>99.400001525879</ele>
        <time>2016-04-18T15:05:51.000Z</time>
      </trkpt>
      <trkpt lat="43.19784" lon="5.75933">
        <ele>101.80000305176</ele>
        <time>2016-04-18T15:05:56.000Z</time>
      </trkpt>
      <trkpt lat="43.1978" lon="5.75936">
        <ele>101.80000305176</ele>
        <time>2016-04-18T15:05:57.000Z</time>
      </trkpt>
      <trkpt lat="43.19776" lon="5.75939">
        <ele>101.80000305176</ele>
        <time>2016-04-18T15:05:58.000Z</time>
      </trkpt>
      <trkpt lat="43.19759" lon="5.75957">
        <ele>102</ele>
        <time>2016-04-18T15:06:03.000Z</time>
      </trkpt>
      <trkpt lat="43.19745" lon="5.7597">
        <ele>103.40000152588</ele>
        <time>2016-04-18T15:06:07.000Z</time>
      </trkpt>
      <trkpt lat="43.19741" lon="5.75973">
        <ele>103.80000305176</ele>
        <time>2016-04-18T15:06:08.000Z</time>
      </trkpt>
      <trkpt lat="43.19734" lon="5.75981">
        <ele>104.80000305176</ele>
        <time>2016-04-18T15:06:10.000Z</time>
      </trkpt>
      <trkpt lat="43.19724" lon="5.75991">
        <ele>106</ele>
        <time>2016-04-18T15:06:13.000Z</time>
      </trkpt>
      <trkpt lat="43.19714" lon="5.76002">
        <ele>107.19999694824</ele>
        <time>2016-04-18T15:06:16.000Z</time>
      </trkpt>
      <trkpt lat="43.19705" lon="5.76012">
        <ele>107.40000152588</ele>
        <time>2016-04-18T15:06:19.000Z</time>
      </trkpt>
      <trkpt lat="43.19696" lon="5.76022">
        <ele>107.40000152588</ele>
        <time>2016-04-18T15:06:22.000Z</time>
      </trkpt>
      <trkpt lat="43.19687" lon="5.76032">
        <ele>107.40000152588</ele>
        <time>2016-04-18T15:06:25.000Z</time>
      </trkpt>
      <trkpt lat="43.19678" lon="5.76041">
        <ele>107.40000152588</ele>
        <time>2016-04-18T15:06:28.000Z</time>
      </trkpt>
      <trkpt lat="43.19675" lon="5.76043">
        <ele>107</ele>
        <time>2016-04-18T15:06:29.000Z</time>
      </trkpt>
      <trkpt lat="43.19669" lon="5.76048">
        <ele>106.19999694824</ele>
        <time>2016-04-18T15:06:31.000Z</time>
      </trkpt>
      <trkpt lat="43.19659" lon="5.76055">
        <ele>106.19999694824</ele>
        <time>2016-04-18T15:06:34.000Z</time>
      </trkpt>
      <trkpt lat="43.19651" lon="5.76056">
        <ele>106.19999694824</ele>
        <time>2016-04-18T15:06:36.000Z</time>
      </trkpt>
      <trkpt lat="43.19646" lon="5.76056">
        <ele>106.59999847412</ele>
        <time>2016-04-18T15:06:37.000Z</time>
      </trkpt>
      <trkpt lat="43.19642" lon="5.76055">
        <ele>107</ele>
        <time>2016-04-18T15:06:38.000Z</time>
      </trkpt>
      <trkpt lat="43.1963" lon="5.76048">
        <ele>108.59999847412</ele>
        <time>2016-04-18T15:06:41.000Z</time>
      </trkpt>
      <trkpt lat="43.19623" lon="5.7604">
        <ele>109.80000305176</ele>
        <time>2016-04-18T15:06:43.000Z</time>
      </trkpt>
      <trkpt lat="43.1962" lon="5.76036">
        <ele>110.40000152588</ele>
        <time>2016-04-18T15:06:44.000Z</time>
      </trkpt>
      <trkpt lat="43.19609" lon="5.76025">
        <ele>112.40000152588</ele>
        <time>2016-04-18T15:06:47.000Z</time>
      </trkpt>
      <trkpt lat="43.19587" lon="5.75997">
        <ele>116</ele>
        <time>2016-04-18T15:06:54.000Z</time>
      </trkpt>
      <trkpt lat="43.19584" lon="5.75994">
        <ele>116.40000152588</ele>
        <time>2016-04-18T15:06:55.000Z</time>
      </trkpt>
      <trkpt lat="43.19575" lon="5.75982">
        <ele>117.59999847412</ele>
        <time>2016-04-18T15:06:58.000Z</time>
      </trkpt>
      <trkpt lat="43.19573" lon="5.75977">
        <ele>118.19999694824</ele>
        <time>2016-04-18T15:06:59.000Z</time>
      </trkpt>
      <trkpt lat="43.19571" lon="5.75972">
        <ele>118.59999847412</ele>
        <time>2016-04-18T15:07:00.000Z</time>
      </trkpt>
      <trkpt lat="43.1957" lon="5.75966">
        <ele>118.80000305176</ele>
        <time>2016-04-18T15:07:01.000Z</time>
      </trkpt>
      <trkpt lat="43.19568" lon="5.75956">
        <ele>118.80000305176</ele>
        <time>2016-04-18T15:07:03.000Z</time>
      </trkpt>
      <trkpt lat="43.19568" lon="5.75944">
        <ele>119</ele>
        <time>2016-04-18T15:07:05.000Z</time>
      </trkpt>
      <trkpt lat="43.19568" lon="5.75939">
        <ele>119.59999847412</ele>
        <time>2016-04-18T15:07:06.000Z</time>
      </trkpt>
      <trkpt lat="43.19568" lon="5.75934">
        <ele>120</ele>
        <time>2016-04-18T15:07:07.000Z</time>
      </trkpt>
      <trkpt lat="43.19566" lon="5.7593">
        <ele>120.40000152588</ele>
        <time>2016-04-18T15:07:08.000Z</time>
      </trkpt>
      <trkpt lat="43.19563" lon="5.75921">
        <ele>121</ele>
        <time>2016-04-18T15:07:10.000Z</time>
      </trkpt>
      <trkpt lat="43.1956" lon="5.75914">
        <ele>121.40000152588</ele>
        <time>2016-04-18T15:07:12.000Z</time>
      </trkpt>
      <trkpt lat="43.19558" lon="5.75908">
        <ele>121.80000305176</ele>
        <time>2016-04-18T15:07:14.000Z</time>
      </trkpt>
      <trkpt lat="43.19553" lon="5.75898">
        <ele>122.40000152588</ele>
        <time>2016-04-18T15:07:18.000Z</time>
      </trkpt>
      <trkpt lat="43.19549" lon="5.75876">
        <ele>123.59999847412</ele>
        <time>2016-04-18T15:07:25.000Z</time>
      </trkpt>
      <trkpt lat="43.19545" lon="5.7585">
        <ele>124.80000305176</ele>
        <time>2016-04-18T15:07:33.000Z</time>
      </trkpt>
      <trkpt lat="43.19542" lon="5.75817">
        <ele>126.40000152588</ele>
        <time>2016-04-18T15:07:42.000Z</time>
      </trkpt>
      <trkpt lat="43.19541" lon="5.7581">
        <ele>126.80000305176</ele>
        <time>2016-04-18T15:07:44.000Z</time>
      </trkpt>
      <trkpt lat="43.19543" lon="5.75791">
        <ele>127.59999847412</ele>
        <time>2016-04-18T15:07:49.000Z</time>
      </trkpt>
      <trkpt lat="43.19553" lon="5.75778">
        <ele>128.80000305176</ele>
        <time>2016-04-18T15:07:53.000Z</time>
      </trkpt>
      <trkpt lat="43.19558" lon="5.75772">
        <ele>129.39999389648</ele>
        <time>2016-04-18T15:07:55.000Z</time>
      </trkpt>
      <trkpt lat="43.1956" lon="5.75769">
        <ele>129.80000305176</ele>
        <time>2016-04-18T15:07:56.000Z</time>
      </trkpt>
      <trkpt lat="43.19568" lon="5.7576">
        <ele>132</ele>
        <time>2016-04-18T15:07:59.000Z</time>
      </trkpt>
      <trkpt lat="43.1957" lon="5.75758">
        <ele>132.80000305176</ele>
        <time>2016-04-18T15:08:00.000Z</time>
      </trkpt>
      <trkpt lat="43.19575" lon="5.75752">
        <ele>134.19999694824</ele>
        <time>2016-04-18T15:08:02.000Z</time>
      </trkpt>
      <trkpt lat="43.19581" lon="5.75747">
        <ele>135.80000305176</ele>
        <time>2016-04-18T15:08:05.000Z</time>
      </trkpt>
      <trkpt lat="43.19582" lon="5.75745">
        <ele>136.19999694824</ele>
        <time>2016-04-18T15:08:06.000Z</time>
      </trkpt>
    </trkseg>
  </trk>
</gpx>